Flight Track Log - Related Links

Times and Time Zones

All times are in EDT time to prevent confusion due to time zone crossing. See the UPS35 flight status page for this flight to view local times or setup timezone preferences in your user account.

Time Position Orientation Groundspeed Altitude Reporting Facility
EDT Latitude Longitude Course Direction KTS MPH feet Rate Location/Type
Sun 06:35:42 AM -33.9340 151.1690 343° North 2 2  Level FlightAware ADS-B
Sun 06:39:47 AM -33.9330 151.1690 360° North 8 9 39 Level FlightAware ADS-B
Sun 06:40:07 AM -33.9320 151.1690 360° North 10 12 64 Level FlightAware ADS-B
Sun 06:40:27 AM -33.9310 151.1690 360° North 11 13 68 Level FlightAware ADS-B
Sun 06:41:07 AM -33.9300 151.1690 360° North 6 7 72 Level FlightAware ADS-B
Sun 06:41:17 AM -33.9300 151.1700 90° East 4 5 81 Level FlightAware ADS-B
Sun 06:43:00 AM -33.7362 151.0848 348° North  Level Estimated
Sun 06:43:42 AM -33.9300 151.1720 348° North 5 6  Level FlightAware ADS-B
Sun 06:45:32 AM -33.9430 151.1750 169° South 140 161 171 Level FlightAware ADS-B
Sun 06:46:02 AM -33.9650 151.1810 167° South 164 189 400 1,333 Climbing FlightAware ADS-B
Sun 06:46:17 AM -33.9750 151.1830 171° South 161 185 1,000 2,100 Climbing FlightAware ADS-B
Sun 06:46:42 AM -33.9950 151.1820 182° South 164 189 1,800 2,073 Climbing FlightAware ADS-B
Sun 06:47:12 AM -34.0180 151.1790 186° South 161 185 2,900 2,057 Climbing FlightAware ADS-B
Sun 06:47:17 AM -34.0220 151.1790 180° South 166 191 3,000 1,143 Climbing FlightAware ADS-B
Sun 06:47:54 AM -34.0601 151.1873 180° South 220 253 3,700 1,833 Climbing Aus ATC (RADAR)
Sun 06:48:29 AM -34.0997 151.2009 164° South 254 292 5,200 2,585 Climbing Aus ATC (RADAR)
Sun 06:48:59 AM -34.1350 151.2131 164° South 267 307 6,500 1,737 Climbing Aus ATC (RADAR)
Sun 06:49:07 AM -34.1380 151.2140 164° South 271 312 6,300 2,571 Descending FlightAware ADS-B
Sun 06:49:34 AM -34.1786 151.2267 164° South 279 321 8,000 2,836 Climbing Aus ATC (RADAR)
Sun 06:50:02 AM -34.2070 151.2180 164° South 276 318 8,900 2,816 Climbing FlightAware ADS-B
Sun 06:50:23 AM -34.2310 151.1885 164° South 269 310 10,300 2,400 Climbing Aus ATC (RADAR)
Sun 06:50:32 AM -34.2320 151.1840 164° South 284 327 10,100 1,440 Descending FlightAware ADS-B
Sun 06:50:48 AM -34.2315 151.1473 164° South 280 322 10,900 1,882 Climbing Aus ATC (RADAR)
Sun 06:51:23 AM -34.1954 151.0993 312° West 331 381 11,700 1,031 Climbing Aus ATC (RADAR)
Sun 06:51:52 AM -34.1590 151.0810 312° West 377 434 12,000 1,385 Climbing FlightAware ADS-B
Sun 06:52:28 AM -34.0907 151.0405 312° West 386 444 13,200 1,350 Climbing Aus ATC (RADAR)
Sun 06:52:32 AM -34.0920 151.0410 312° West 410 472 12,900 2,200 Descending FlightAware ADS-B
Sun 06:52:58 AM -34.0368 151.0107 312° West 415 478 14,300 2,000 Climbing Aus ATC (RADAR)
Sun 06:53:17 AM -34.0130 150.9980 312° West 421 484 14,400 2,000 Climbing FlightAware ADS-B
Sun 06:53:43 AM -33.9560 150.9671 312° West 415 478 15,800 2,400 Climbing Aus ATC (RADAR)
Sun 06:53:57 AM -33.9380 150.9580 312° West 427 491 16,000 2,400 Climbing FlightAware ADS-B
Sun 06:54:18 AM -33.8911 150.9323 312° West 422 486 17,200 2,133 Climbing Aus ATC (RADAR)
Sun 06:54:42 AM -33.8550 150.9130 312° West 442 509 17,600 1,781 Climbing FlightAware ADS-B
Sun 06:55:22 AM -33.7790 150.8730 336° Northwest 439 505 19,100 2,368 Climbing FlightAware ADS-B
Sun 06:55:58 AM -33.7004 150.8310 336° Northwest 449 517 20,600 1,650 Climbing Aus ATC (RADAR)
Sun 06:56:02 AM -33.7020 150.8320 336° Northwest 457 526 20,200 1,714 Descending FlightAware ADS-B
Sun 06:56:33 AM -33.6325 150.7947 336° Northwest 455 524 21,600 1,800 Climbing Aus ATC (RADAR)
Sun 06:56:42 AM -33.6260 150.7920 336° Northwest 455 524 21,400 1,650 Descending FlightAware ADS-B
Sun 06:57:13 AM -33.5503 150.7614 336° Northwest 467 537 22,700 1,733 Climbing Aus ATC (RADAR)
Sun 06:57:27 AM -33.5320 150.7570 336° Northwest 468 539 22,700 1,111 Level FlightAware ADS-B
Sun 06:58:07 AM -33.4460 150.7310 346° North 482 555 23,700 1,553 Climbing FlightAware ADS-B
Sun 06:58:52 AM -33.3450 150.7010 346° North 479 551 24,900 1,859 Climbing FlightAware ADS-B
Sun 06:59:18 AM -33.2785 150.6804 346° North 488 562 25,900 1,350 Climbing Aus ATC (RADAR)
Sun 06:59:32 AM -33.2600 150.6750 346° North 484 557 25,800 1,543 Descending FlightAware ADS-B
Sun 06:59:53 AM -33.2012 150.6575 346° North 490 564 26,800 1,650 Climbing Aus ATC (RADAR)
Sun 07:00:12 AM -33.1690 150.6480 346° North 484 557 26,900 1,320 Climbing FlightAware ADS-B
Sun 07:00:43 AM -33.0901 150.6246 346° North 495 570 27,900 1,333 Climbing Aus ATC (RADAR)
Sun 07:00:57 AM -33.0690 150.6190 346° North 495 570 27,900 2,449 Level FlightAware ADS-B
Sun 07:01:32 AM -32.9804 150.5928 346° North 475 547 29,900 2,400 Climbing Aus ATC (RADAR)
Sun 07:01:37 AM -32.9820 150.5930 346° North 481 554 29,500 1,650 Descending FlightAware ADS-B
Sun 07:02:12 AM -32.8948 150.5678 346° North 463 533 31,000 1,867 Climbing Aus ATC (RADAR)
Sun 07:02:22 AM -32.8840 150.5640 346° North 464 534 30,900 1,080 Descending FlightAware ADS-B
Sun 07:03:02 AM -32.8020 150.5400 346° North 465 535 31,900 1,575 Climbing FlightAware ADS-B
Sun 07:03:42 AM -32.7160 150.5150 346° North 447 514 33,000 2,057 Climbing FlightAware ADS-B
Sun 07:04:12 AM -32.6462 150.4944 346° North 449 517 34,300 1,333 Climbing Aus ATC (RADAR)
Sun 07:04:27 AM -32.6280 150.4890 346° North 435 501 34,000  Descending FlightAware ADS-B
Sun 07:04:47 AM -32.5769 150.4742 346° North 442 509 34,300  Climbing Aus ATC (RADAR)
Sun 07:05:07 AM -32.5490 150.4660 346° North 434 499 34,000 -300 Descending FlightAware ADS-B
Sun 07:05:47 AM -32.4710 150.4430 346° North 432 497 34,000 277 Level FlightAware ADS-B
Sun 07:06:12 AM -32.4097 150.4255 346° North 442 509 34,300  Climbing Aus ATC (RADAR)
Sun 07:06:32 AM -32.3820 150.4170 346° North 433 498 34,000  Descending FlightAware ADS-B
Sun 07:06:47 AM -32.3401 150.4052 346° North 442 509 34,300  Climbing Aus ATC (RADAR)
Sun 07:07:12 AM -32.3000 150.3930 346° North 433 498 34,000  Descending FlightAware ADS-B
Sun 07:07:27 AM -32.2609 150.3819 346° North 442 509 34,300  Climbing Aus ATC (RADAR)
Sun 07:07:57 AM -32.2130 150.3680 346° North 434 499 34,000  Descending FlightAware ADS-B
Sun 07:08:37 AM -32.1220 150.3419 346° North 441 507 34,300  Climbing Aus ATC (RADAR)
Sun 07:08:37 AM -32.1300 150.3440 346° North 432 497 34,000  Descending FlightAware ADS-B
Sun 07:09:07 AM -32.0625 150.3245 346° North 442 509 34,300  Climbing Aus ATC (RADAR)
Sun 07:09:22 AM -32.0420 150.3190 346° North 433 498 34,000  Descending FlightAware ADS-B
Sun 07:09:42 AM -31.9930 150.3043 346° North 442 509 34,300  Climbing Aus ATC (RADAR)
Sun 07:10:02 AM -31.9610 150.2960 346° North 433 498 34,000  Descending FlightAware ADS-B
Sun 07:10:27 AM -31.9038 150.2792 346° North 441 507 34,300  Climbing Aus ATC (RADAR)
Sun 07:10:42 AM -31.8840 150.2730 346° North 434 499 34,000  Descending FlightAware ADS-B
Sun 07:10:57 AM -31.8439 150.2617 346° North 444 511 34,300  Climbing Aus ATC (RADAR)
Sun 07:11:22 AM -31.8020 150.2500 346° North 443 510 34,000 -185 Descending FlightAware ADS-B
Sun 07:12:02 AM -31.7230 150.2270 346° North 443 510 34,100 400 Climbing FlightAware ADS-B
Sun 07:12:07 AM -31.7043 150.2215 346° North 445 512 34,300 343 Climbing Aus ATC (RADAR)
Sun 07:12:37 AM -31.6448 150.2042 346° North 443 510 34,300 -267 Level Aus ATC (RADAR)
Sun 07:12:52 AM -31.6220 150.1980 346° North 431 496 34,100  Descending FlightAware ADS-B
Sun 07:13:07 AM -31.5851 150.1869 346° North 440 506 34,300  Climbing Aus ATC (RADAR)
Sun 07:13:27 AM -31.5570 150.1790 346° North 428 493 34,100  Descending FlightAware ADS-B
Sun 07:13:42 AM -31.5164 150.1675 346° North 436 502 34,300 -133 Climbing Aus ATC (RADAR)
Sun 07:14:12 AM -31.4660 150.1530 346° North 434 499 34,000 -80 Descending FlightAware ADS-B
Sun 07:14:57 AM -31.3700 150.1257 346° North 433 498 34,200  Climbing Aus ATC (RADAR)
Sun 07:14:57 AM -31.3810 150.1290 346° North 433 498 34,000 -300 Descending FlightAware ADS-B
Sun 07:15:37 AM -31.3030 150.1080 347° North 427 491 34,000 218 Level FlightAware ADS-B
Sun 07:15:52 AM -31.2624 150.0957 347° North 435 501 34,200 450 Climbing Aus ATC (RADAR)
Sun 07:16:17 AM -31.2132 150.0812 346° North 437 503 34,300 -400 Climbing Aus ATC (RADAR)
Sun 07:16:22 AM -31.2110 150.0810 346° North 428 493 34,000  Descending FlightAware ADS-B
Sun 07:16:51 AM -31.1445 150.0618 346° North 437 503 34,300 150 Climbing Aus ATC (RADAR)
Sun 07:17:02 AM -31.1350 150.0590 346° North 430 495 34,100  Descending FlightAware ADS-B
Sun 07:17:31 AM -31.0651 150.0394 346° North 441 507 34,300  Climbing Aus ATC (RADAR)
Sun 07:17:57 AM -31.0280 150.0290 346° North 432 497 34,100  Descending FlightAware ADS-B
Sun 07:18:41 AM -30.9266 150.0003 346° North 442 509 34,300  Climbing Aus ATC (RADAR)
Sun 07:18:42 AM -30.9470 150.0060 346° North 432 497 34,100  Descending FlightAware ADS-B
Sun 07:19:11 AM -30.8671 149.9833 346° North 442 509 34,300  Climbing Aus ATC (RADAR)
Sun 07:19:22 AM -30.8550 149.9800 346° North 433 498 34,100  Descending FlightAware ADS-B
Sun 07:19:46 AM -30.7971 149.9635 346° North 445 512 34,300  Climbing Aus ATC (RADAR)
Sun 07:20:17 AM -30.7530 149.9510 346° North 443 510 34,100 -169 Descending FlightAware ADS-B
Sun 07:20:57 AM -30.6860 149.9310 346° North 443 510 34,100 162 Level FlightAware ADS-B
Sun 07:21:31 AM -30.5882 149.9049 346° North 442 509 34,300  Climbing Aus ATC (RADAR)
Sun 07:21:37 AM -30.6180 149.9120 346° North 443 510 34,100 -171 Descending FlightAware ADS-B
Sun 07:22:06 AM -30.5185 149.8857 346° North 443 510 34,200  Climbing Aus ATC (RADAR)
Sun 07:22:17 AM -30.5500 149.8920 346° North 443 510 34,100 150 Descending FlightAware ADS-B
Sun 07:22:46 AM -30.4393 149.8634 346° North 441 507 34,300  Climbing Aus ATC (RADAR)
Sun 07:23:07 AM -30.4660 149.8680 346° North 443 510 34,100 -197 Descending FlightAware ADS-B
Sun 07:23:47 AM -30.3980 149.8480 346° North 443 510 34,100  Level FlightAware ADS-B
Sun 07:24:27 AM -30.3310 149.8280 346° North 443 510 34,100 76 Level FlightAware ADS-B
Sun 07:25:06 AM -30.1586 149.7962 346° North 444 511 34,200  Climbing Aus ATC (RADAR)
Sun 07:25:07 AM -30.2630 149.8090 346° North 443 510 34,100 -146 Descending FlightAware ADS-B
Sun 07:25:47 AM -30.1950 149.7890 346° North 443 510 34,100 88 Level FlightAware ADS-B
Sun 07:26:15 AM -30.0176 149.7656 346° North 443 510 34,200  Climbing Aus ATC (RADAR)
Sun 07:26:37 AM -30.1110 149.7650 346° North 443 510 34,100  Descending FlightAware ADS-B
Sun 07:27:00 AM -29.9269 149.7461 346° North 443 510 34,200  Climbing Aus ATC (RADAR)
Sun 07:27:17 AM -30.0430 149.7460 346° North 443 510 34,100 171 Descending FlightAware ADS-B
Sun 07:27:35 AM -29.8564 149.7313 346° North 443 510 34,300  Climbing Aus ATC (RADAR)
Sun 07:27:57 AM -29.9760 149.7260 346° North 443 510 34,100  Descending FlightAware ADS-B
Sun 07:28:15 AM -29.7758 149.7144 346° North 443 510 34,300 279 Climbing Aus ATC (RADAR)
Sun 07:28:40 AM -29.7252 149.7039 350° North 443 510 34,300 -375 Level Aus ATC (RADAR)
Sun 07:28:47 AM -29.8910 149.7020 350° North 443 510 34,100  Descending FlightAware ADS-B
Sun 07:29:14 AM -29.6562 149.6884 350° North 439 505 34,300  Climbing Aus ATC (RADAR)
Sun 07:29:27 AM -29.8230 149.6820 350° North 443 510 34,100  Descending FlightAware ADS-B
Sun 07:29:50 AM -29.5848 149.6734 350° North 442 509 34,300 -103 Climbing Aus ATC (RADAR)
Sun 07:30:25 AM -29.5149 149.6576 349° North 441 507 34,000 -212 Descending Aus ATC (RADAR)
Sun 07:31:15 AM -29.4135 149.6374 350° North 444 511 34,000  Level Aus ATC (RADAR)
Sun 07:31:45 AM -29.3530 149.6246 350° North 443 510 34,000  Level Aus ATC (RADAR)
Sun 07:32:15 AM -29.2930 149.6111 349° North 442 509 34,000  Level Aus ATC (RADAR)
Sun 07:32:50 AM -29.2224 149.5961 350° North 443 510 34,000  Level Aus ATC (RADAR)
Sun 07:33:30 AM -29.1413 149.5796 350° North 445 512 34,000 80 Level Aus ATC (RADAR)
Sun 07:34:05 AM -29.0703 149.5650 350° North 445 512 34,100 80 Climbing Aus ATC (RADAR)
Sun 07:34:45 AM -28.9896 149.5481 350° North 443 510 34,100 -81 Level Aus ATC (RADAR)
Sun 07:35:19 AM -28.9190 149.5332 349° North 444 511 34,000 143 Descending Aus ATC (RADAR)
Sun 07:36:09 AM -28.8185 149.5113 349° North 443 510 34,300  Climbing Aus ATC (RADAR)
Sun 07:36:29 AM -28.7773 149.5036 351° North 445 512 34,000 -450 Descending Aus ATC (RADAR)
Sun 07:36:49 AM -28.7367 149.4949 349° North 446 513 34,000  Level Aus ATC (RADAR)
Sun 07:37:24 AM -28.6653 149.4806 350° North 446 513 34,000  Level Aus ATC (RADAR)
Sun 07:38:04 AM -28.5841 149.4634 349° North 447 514 34,000 277 Level Aus ATC (RADAR)
Sun 07:38:29 AM -28.5329 149.4537 351° North 447 514 34,300 295 Climbing Aus ATC (RADAR)
Sun 07:39:05 AM -28.4624 149.4379 349° North 446 513 34,300  Level Aus ATC (RADAR)
Sun 07:39:44 AM -28.3814 149.4200 349° North 444 511 34,300  Level Aus ATC (RADAR)
Sun 07:40:05 AM -28.3413 149.4110 349° North 442 509 34,300  Level Aus ATC (RADAR)
Sun 07:40:44 AM -28.2600 149.3961 351° North 442 509 34,300 -71 Level Aus ATC (RADAR)
Sun 07:41:29 AM -28.1707 149.3745 348° North 441 507 34,200 -86 Descending Aus ATC (RADAR)
Sun 07:41:54 AM -28.1268 149.3524 336° Northwest 428 493 34,200  Level Aus ATC (RADAR)
Sun 07:42:24 AM -28.0665 149.3367 347° North 435 501 34,200  Level Aus ATC (RADAR)
Sun 07:43:04 AM -27.9920 149.3077 341° North 430 495 34,200  Level Aus ATC (RADAR)
Sun 07:43:39 AM -27.9273 149.2811 340° North 428 493 34,200  Level Aus ATC (RADAR)
Sun 07:44:13 AM -27.8631 149.2557 341° North 426 490 34,200  Level Aus ATC (RADAR)
Sun 07:44:48 AM -27.7959 149.2311 342° North 431 496 34,200 86 Level Aus ATC (RADAR)
Sun 07:45:23 AM -27.7289 149.2068 342° North 431 496 34,300 71 Climbing Aus ATC (RADAR)
Sun 07:46:13 AM -27.6329 149.1721 342° North 434 499 34,300  Level Aus ATC (RADAR)
Sun 07:46:38 AM -27.5861 149.1550 342° North 429 494 34,300  Level Aus ATC (RADAR)
Sun 07:46:58 AM -27.5512 149.1416 341° North 414 476 34,300  Level Aus ATC (RADAR)
Sun 07:47:33 AM -27.4780 149.1166 343° North 442 509 34,300 -80 Level Aus ATC (RADAR)
Sun 07:48:13 AM -27.4019 149.0892 342° North 431 496 34,200 -92 Descending Aus ATC (RADAR)
Sun 07:48:38 AM -27.3538 149.0713 342° North 434 499 34,200  Level Aus ATC (RADAR)
Sun 07:49:08 AM -27.2964 149.0510 343° North 433 498 34,200  Level Aus ATC (RADAR)
Sun 07:49:53 AM -27.2105 149.0196 342° North 432 497 34,200  Level Aus ATC (RADAR)
Sun 07:50:13 AM -27.1722 149.0058 342° North 433 498 34,200  Level Aus ATC (RADAR)
Sun 07:50:48 AM -27.1056 148.9818 342° North 431 496 34,200  Level Aus ATC (RADAR)
Sun 07:51:28 AM -27.0299 148.9546 342° North 428 493 34,200  Level Aus ATC (RADAR)
Sun 07:52:03 AM -26.9636 148.9306 342° North 428 493 34,200  Level Aus ATC (RADAR)
Sun 07:52:33 AM -26.9067 148.9103 342° North 427 491 34,200  Level Aus ATC (RADAR)
Sun 07:53:13 AM -26.8307 148.8829 342° North 430 495 34,200  Level Aus ATC (RADAR)
Sun 07:53:47 AM -26.7645 148.8597 343° North 428 493 34,200  Level Aus ATC (RADAR)
Sun 07:54:22 AM -26.6983 148.8358 342° North 428 493 34,200  Level Aus ATC (RADAR)
Sun 07:54:52 AM -26.6413 148.8154 342° North 428 493 34,200  Level Aus ATC (RADAR)
Sun 07:55:22 AM -26.5840 148.7954 343° North 431 496 34,200  Level Aus ATC (RADAR)
Sun 07:55:57 AM -26.5174 148.7719 342° North 430 495 34,200  Level Aus ATC (RADAR)
Sun 07:56:37 AM -26.4387 148.7494 346° North 435 501 34,200  Level Aus ATC (RADAR)
Sun 07:57:12 AM -26.3708 148.7303 346° North 433 498 34,200  Level Aus ATC (RADAR)
Sun 07:57:47 AM -26.3025 148.7107 346° North 435 501 34,200  Level Aus ATC (RADAR)
Sun 07:58:22 AM -26.2343 148.6904 345° North 435 501 34,200  Level Aus ATC (RADAR)
Sun 07:58:57 AM -26.1654 148.6703 345° North 434 499 34,200  Level Aus ATC (RADAR)
Sun 07:59:32 AM -26.0962 148.6505 346° North 440 506 34,200 80 Level Aus ATC (RADAR)
Sun 08:00:12 AM -26.0179 148.6278 345° North 437 503 34,300 86 Climbing Aus ATC (RADAR)
Sun 08:00:42 AM -25.9591 148.6106 345° North 437 503 34,300 -160 Level Aus ATC (RADAR)
Sun 08:01:27 AM -25.8711 148.5848 345° North 437 503 34,100 -80 Descending Aus ATC (RADAR)
Sun 08:01:57 AM -25.8123 148.5679 346° North 439 505 34,200 92 Climbing Aus ATC (RADAR)
Sun 08:02:32 AM -25.7439 148.5479 345° North 435 501 34,200  Level Aus ATC (RADAR)
Sun 08:03:07 AM -25.6761 148.5283 345° North 432 497 34,200  Level Aus ATC (RADAR)
Sun 08:03:47 AM -25.5981 148.5061 346° North 434 499 34,200 -185 Level Aus ATC (RADAR)
Sun 08:04:12 AM -25.5730 148.4990 345° North 434 499 34,000  Descending FlightAware ADS-B
Sun 08:04:17 AM -25.5389 148.4882 345° North 437 503 34,200  Climbing Aus ATC (RADAR)
Sun 08:04:52 AM -25.4940 148.4760 345° North 436 502 34,000  Descending FlightAware ADS-B
Sun 08:05:32 AM -25.3922 148.4462 345° North 436 502 34,200  Climbing Aus ATC (RADAR)
Sun 08:05:32 AM -25.4210 148.4550 345° North 438 504 34,000  Descending FlightAware ADS-B
Sun 08:06:02 AM -25.3330 148.4294 345° North 439 505 34,200 150 Climbing Aus ATC (RADAR)
Sun 08:06:12 AM -25.3240 148.4260 345° North 439 505 34,100 154 Descending FlightAware ADS-B
Sun 08:06:41 AM -25.2550 148.4069 345° North 436 502 34,300  Climbing Aus ATC (RADAR)
Sun 08:07:02 AM -25.2510 148.4050 345° North 440 506 34,100 -197 Descending FlightAware ADS-B
Sun 08:07:42 AM -25.1620 148.3800 346° North 441 507 34,100  Level FlightAware ADS-B
Sun 08:08:22 AM -25.0820 148.3570 345° North 440 506 34,100 76 Level FlightAware ADS-B
Sun 08:09:01 AM -24.9786 148.3279 345° North 439 505 34,200 -150 Climbing Aus ATC (RADAR)
Sun 08:09:02 AM -24.9970 148.3330 345° North 440 506 34,000  Descending FlightAware ADS-B
Sun 08:09:36 AM -24.9091 148.3077 345° North 442 509 34,200  Climbing Aus ATC (RADAR)
Sun 08:09:42 AM -24.9180 148.3100 345° North 440 506 34,000  Descending FlightAware ADS-B
Sun 08:10:11 AM -24.8390 148.2876 345° North 445 512 34,200  Climbing Aus ATC (RADAR)
Sun 08:10:32 AM -24.8180 148.2810 345° North 439 505 34,000 -197 Descending FlightAware ADS-B
Sun 08:11:12 AM -24.7510 148.2620 346° North 439 505 34,000 203 Level FlightAware ADS-B
Sun 08:11:31 AM -24.6829 148.2431 346° North 434 499 34,200  Climbing Aus ATC (RADAR)
Sun 08:11:52 AM -24.6740 148.2400 346° North 438 504 34,000 -235 Descending FlightAware ADS-B
Sun 08:12:22 AM -24.6010 148.2190 345° North 437 503 34,000  Level FlightAware ADS-B
Sun 08:13:02 AM -24.5280 148.1990 346° North 437 503 34,000  Level FlightAware ADS-B
Sun 08:13:37 AM -24.4610 148.1800 346° North 437 503 34,000 273 Level FlightAware ADS-B
Sun 08:13:46 AM -24.4178 148.1676 346° North 436 502 34,200 308 Climbing Aus ATC (RADAR)
Sun 08:14:16 AM -24.3589 148.1511 346° North 437 503 34,200 -387 Level Aus ATC (RADAR)
Sun 08:14:17 AM -24.3810 148.1570 346° North 436 502 34,000  Descending FlightAware ADS-B
Sun 08:14:56 AM -24.2805 148.1293 346° North 437 503 34,200  Climbing Aus ATC (RADAR)
Sun 08:15:07 AM -24.2860 148.1300 346° North 435 501 34,000 -261 Descending FlightAware ADS-B
Sun 08:15:42 AM -24.2030 148.1070 346° North 433 498 34,000 136 Level FlightAware ADS-B
Sun 08:16:35 AM -24.0855 148.0744 346° North 435 501 34,200  Climbing Aus ATC (RADAR)
Sun 08:16:42 AM -24.0950 148.0770 346° North 434 499 34,000  Descending FlightAware ADS-B
Sun 08:17:05 AM -24.0272 148.0580 346° North 435 501 34,200  Climbing Aus ATC (RADAR)
Sun 08:17:22 AM -24.0190 148.0550 346° North 433 498 34,000 -211 Descending FlightAware ADS-B
Sun 08:18:02 AM -23.9460 148.0340 345° North 433 498 34,000  Level FlightAware ADS-B
Sun 08:18:42 AM -23.8680 148.0120 345° North 433 498 34,000 250 Level FlightAware ADS-B
Sun 08:18:50 AM -23.8233 147.9998 345° North 432 497 34,200 316 Climbing Aus ATC (RADAR)
Sun 08:19:20 AM -23.7644 147.9839 345° North 435 501 34,200 -286 Level Aus ATC (RADAR)
Sun 08:19:32 AM -23.7820 147.9880 345° North 434 499 34,000  Descending FlightAware ADS-B
Sun 08:20:00 AM -23.6868 147.9622 345° North 433 498 34,200  Climbing Aus ATC (RADAR)
Sun 08:20:27 AM -23.6650 147.9550 345° North 434 499 34,000  Descending FlightAware ADS-B
Sun 08:21:05 AM -23.5599 147.9268 345° North 435 501 34,200  Climbing Aus ATC (RADAR)
Sun 08:21:07 AM -23.5810 147.9320 345° North 434 499 34,000 -286 Descending FlightAware ADS-B
Sun 08:21:47 AM -23.5010 147.9100 346° North 434 499 34,000  Level FlightAware ADS-B
Sun 08:22:37 AM -23.4120 147.8850 346° North 436 502 34,000 77 Level FlightAware ADS-B
Sun 08:23:05 AM -23.3250 147.8610 346° North 438 504 34,100 150 Climbing Aus ATC (RADAR)
Sun 08:23:17 AM -23.3230 147.8600 346° North 437 503 34,100  Level FlightAware ADS-B
Sun 08:23:45 AM -23.2462 147.8392 346° North 440 506 34,100  Level Aus ATC (RADAR)
Sun 08:24:12 AM -23.2220 147.8320 346° North 438 504 34,100 92 Level FlightAware ADS-B
Sun 08:24:50 AM -23.1184 147.8039 346° North 438 504 34,200  Climbing Aus ATC (RADAR)
Sun 08:24:52 AM -23.1320 147.8070 346° North 439 505 34,100  Descending FlightAware ADS-B
Sun 08:25:30 AM -23.0393 147.7816 346° North 440 506 34,200  Climbing Aus ATC (RADAR)
Sun 08:25:32 AM -23.0630 147.7870 346° North 440 506 34,100 -171 Descending FlightAware ADS-B
Sun 08:26:05 AM -22.9703 147.7623 346° North 440 506 34,100  Level Aus ATC (RADAR)
Sun 08:26:12 AM -22.9780 147.7640 346° North 441 507 34,100  Level FlightAware ADS-B
Sun 08:26:54 AM -22.8709 147.7353 346° North 441 507 34,100  Level Aus ATC (RADAR)
Sun 08:27:02 AM -22.8750 147.7350 346° North 441 507 34,100 -125 Level FlightAware ADS-B
Sun 08:27:42 AM -22.7940 147.7130 346° North 440 506 34,000 -75 Descending FlightAware ADS-B
Sun 08:28:22 AM -22.7220 147.6930 346° North 441 507 34,000 140 Level FlightAware ADS-B
Sun 08:28:25 AM -22.6920 147.6855 346° North 442 509 34,100 158 Climbing Aus ATC (RADAR)
Sun 08:29:00 AM -22.6223 147.6662 346° North 443 510 34,100 -143 Level Aus ATC (RADAR)
Sun 08:29:07 AM -22.6180 147.6640 346° North 442 509 34,000  Descending FlightAware ADS-B
Sun 08:29:35 AM -22.5533 147.6459 346° North 442 509 34,100  Climbing Aus ATC (RADAR)
Sun 08:29:42 AM -22.5690 147.6500 346° North 440 506 34,000  Descending FlightAware ADS-B
Sun 08:30:09 AM -22.4847 147.6252 346° North 440 506 34,100  Climbing Aus ATC (RADAR)
Sun 08:30:22 AM -22.4730 147.6210 346° North 441 507 34,000  Descending FlightAware ADS-B
Sun 08:30:44 AM -22.4158 147.6053 346° North 439 505 34,100  Climbing Aus ATC (RADAR)
Sun 08:31:12 AM -22.3790 147.5930 346° North 441 507 34,000  Descending FlightAware ADS-B
Sun 08:32:04 AM -22.2580 147.5582 346° North 442 509 34,100  Climbing Aus ATC (RADAR)
Sun 08:32:07 AM -22.2680 147.5600 346° North 441 507 34,000  Descending FlightAware ADS-B
Sun 08:32:39 AM -22.1888 147.5376 346° North 440 506 34,100  Climbing Aus ATC (RADAR)
Sun 08:32:52 AM -22.1790 147.5340 346° North 443 510 34,000  Descending FlightAware ADS-B
Sun 08:33:09 AM -22.1292 147.5198 346° North 444 511 34,100  Climbing Aus ATC (RADAR)
Sun 08:33:27 AM -22.1180 147.5160 346° North 443 510 34,000  Descending FlightAware ADS-B
Sun 08:33:49 AM -22.0499 147.4964 346° North 445 512 34,100  Climbing Aus ATC (RADAR)
Sun 08:34:17 AM -22.0150 147.4850 346° North 444 511 34,000  Descending FlightAware ADS-B
Sun 08:34:54 AM -21.9206 147.4585 346° North 446 513 34,100  Climbing Aus ATC (RADAR)
Sun 08:34:57 AM -21.9450 147.4650 346° North 445 512 34,000  Descending FlightAware ADS-B
Sun 08:35:34 AM -21.8408 147.4348 346° North 446 513 34,100 109 Climbing Aus ATC (RADAR)
Sun 08:35:52 AM -21.8190 147.4270 346° North 447 514 34,100  Level FlightAware ADS-B
Sun 08:36:42 AM -21.7190 147.3980 346° North 448 516 34,100 231 Level FlightAware ADS-B
Sun 08:36:44 AM -21.7007 147.3935 346° North 447 514 34,300 188 Climbing Aus ATC (RADAR)
Sun 08:37:14 AM -21.6405 147.3761 346° North 447 514 34,200 -207 Descending Aus ATC (RADAR)
Sun 08:37:42 AM -21.6070 147.3640 346° North 449 517 34,100 -88 Descending FlightAware ADS-B
Sun 08:38:22 AM -21.5390 147.3440 346° North 449 517 34,100 143 Level FlightAware ADS-B
Sun 08:38:24 AM -21.5000 147.3347 346° North 448 516 34,200  Climbing Aus ATC (RADAR)
Sun 08:38:59 AM -21.4301 147.3141 346° North 445 512 34,100 -140 Descending Aus ATC (RADAR)
Sun 08:39:07 AM -21.4680 147.3230 346° North 448 516 34,100  Level FlightAware ADS-B
Sun 08:39:29 AM -21.3704 147.2968 346° North 444 511 34,100  Level Aus ATC (RADAR)
Sun 08:39:47 AM -21.4000 147.3020 346° North 448 516 34,100  Level FlightAware ADS-B
Sun 08:40:09 AM -21.2909 147.2739 346° North 444 511 34,100  Level Aus ATC (RADAR)
Sun 08:40:27 AM -21.3330 147.2810 346° North 448 516 34,100  Level FlightAware ADS-B
Sun 08:41:07 AM -21.2650 147.2610 345° North 448 516 34,100  Level FlightAware ADS-B
Sun 08:41:48 AM -21.0947 147.2167 345° North 439 505 34,100  Level Aus ATC (RADAR)
Sun 08:41:57 AM -21.1800 147.2350 345° North 448 516 34,100  Level FlightAware ADS-B
Sun 08:42:23 AM -21.0266 147.1971 345° North 435 501 34,100  Level Aus ATC (RADAR)
Sun 08:42:37 AM -21.1120 147.2140 345° North 448 516 34,100  Level FlightAware ADS-B
Sun 08:43:03 AM -20.9489 147.1740 345° North 434 499 34,100  Level Aus ATC (RADAR)
Sun 08:43:17 AM -21.0450 147.1930 345° North 448 516 34,100  Level FlightAware ADS-B
Sun 08:43:38 AM -20.8807 147.1544 345° North 435 501 34,100  Level Aus ATC (RADAR)
Sun 08:43:57 AM -20.9770 147.1720 345° North 448 516 34,100  Level FlightAware ADS-B
Sun 08:44:37 AM -20.9090 147.1510 344° North 448 516 34,100  Level FlightAware ADS-B
Sun 08:45:18 AM -20.6860 147.0977 344° North 436 502 34,100 -120 Level Aus ATC (RADAR)
Sun 08:45:27 AM -20.6790 147.0950 344° North 437 503 34,000  Descending FlightAware ADS-B
Sun 08:45:58 AM -20.6073 147.0753 344° North 439 505 34,100  Climbing Aus ATC (RADAR)
Sun 08:46:07 AM -20.6020 147.0730 344° North 431 496 34,000  Descending FlightAware ADS-B
Sun 08:46:28 AM -20.5483 147.0583 344° North 440 506 34,100 133 Climbing Aus ATC (RADAR)
Sun 08:46:52 AM -20.5110 147.0460 344° North 433 498 34,100 133 Level FlightAware ADS-B
Sun 08:47:13 AM -20.4595 147.0327 344° North 442 509 34,200  Climbing Aus ATC (RADAR)
Sun 08:47:32 AM -20.4300 147.0230 344° North 434 499 34,100 -102 Descending FlightAware ADS-B
Sun 08:48:12 AM -20.3500 147.0000 344° North 436 502 34,100 146 Level FlightAware ADS-B
Sun 08:48:13 AM -20.3408 146.9982 344° North 442 509 34,200 167 Climbing Aus ATC (RADAR)
Sun 08:48:48 AM -20.2708 146.9784 344° North 447 514 34,200 -136 Level Aus ATC (RADAR)
Sun 08:48:57 AM -20.2590 146.9740 344° North 437 503 34,100  Descending FlightAware ADS-B
Sun 08:49:23 AM -20.2011 146.9584 344° North 446 513 34,200  Climbing Aus ATC (RADAR)
Sun 08:49:37 AM -20.1830 146.9520 344° North 437 503 34,100 -171 Descending FlightAware ADS-B
Sun 08:49:58 AM -20.1317 146.9380 344° North 445 512 34,100 -133 Level Aus ATC (RADAR)
Sun 08:50:22 AM -20.0900 146.9250 344° North 446 513 34,000  Descending FlightAware ADS-B
Sun 08:50:38 AM -20.0517 146.9151 344° North 447 514 34,100  Climbing Aus ATC (RADAR)
Sun 08:51:02 AM -20.0090 146.9020 344° North 446 513 34,000  Descending FlightAware ADS-B
Sun 08:51:42 AM -19.9221 146.8778 344° North 446 513 34,100  Climbing Aus ATC (RADAR)
Sun 08:51:42 AM -19.9270 146.8780 344° North 446 513 34,000 -133 Descending FlightAware ADS-B
Sun 08:52:27 AM -19.8390 146.8530 345° North 446 513 34,000 71 Level FlightAware ADS-B
Sun 08:53:07 AM -19.7518 146.8290 345° North 453 521 34,100  Climbing Aus ATC (RADAR)
Sun 08:53:07 AM -19.7570 146.8300 345° North 437 503 34,000  Descending FlightAware ADS-B
Sun 08:53:37 AM -19.6925 146.8120 345° North 446 513 34,100  Climbing Aus ATC (RADAR)
Sun 08:53:52 AM -19.6700 146.8050 345° North 436 502 34,000  Descending FlightAware ADS-B
Sun 08:54:17 AM -19.6129 146.7896 345° North 444 511 34,100  Climbing Aus ATC (RADAR)
Sun 08:54:32 AM -19.5870 146.7810 345° North 435 501 34,000  Descending FlightAware ADS-B
Sun 08:54:47 AM -19.5538 146.7723 345° North 444 511 34,100  Climbing Aus ATC (RADAR)
Sun 08:55:12 AM -19.5090 146.7590 345° North 435 501 34,000 -86 Descending FlightAware ADS-B
Sun 08:55:57 AM -19.4190 146.7330 345° North 434 499 34,000 75 Level FlightAware ADS-B
Sun 08:56:32 AM -19.3445 146.7139 345° North 450 518 34,100  Climbing Aus ATC (RADAR)
Sun 08:56:32 AM -19.3470 146.7130 345° North 433 498 34,000  Descending FlightAware ADS-B
Sun 08:57:17 AM -19.2557 146.6870 345° North 450 518 34,100 80 Climbing Aus ATC (RADAR)
Sun 08:57:47 AM -19.1960 146.6714 346° North 445 512 34,100  Level Aus ATC (RADAR)
Sun 08:58:17 AM -19.1373 146.6534 344° North 439 505 34,100  Level Aus ATC (RADAR)
Sun 08:58:52 AM -19.0679 146.6351 346° North 437 503 34,100 -109 Level Aus ATC (RADAR)
Sun 08:59:12 AM -19.0390 146.6260 346° North 434 499 34,000  Descending FlightAware ADS-B
Sun 08:59:27 AM -18.9988 146.6148 346° North 437 503 34,100 150 Climbing Aus ATC (RADAR)
Sun 08:59:52 AM -18.9600 146.6030 346° North 434 499 34,100 429 Level FlightAware ADS-B
Sun 09:00:37 AM -18.8730 146.5790 345° North 430 495 34,600 960 Climbing FlightAware ADS-B
Sun 09:01:07 AM -18.8022 146.5596 345° North 431 496 35,300 1,050 Climbing Aus ATC (RADAR)
Sun 09:01:17 AM -18.7910 146.5550 345° North 435 501 35,300 764 Level FlightAware ADS-B
Sun 09:02:02 AM -18.7020 146.5310 346° North 435 501 36,000 494 Climbing FlightAware ADS-B
Sun 09:02:42 AM -18.6260 146.5090 345° North 434 499 36,000 80 Level FlightAware ADS-B
Sun 09:03:17 AM -18.5489 146.4877 345° North 424 488 36,100  Climbing Aus ATC (RADAR)
Sun 09:03:22 AM -18.5460 146.4870 345° North 430 495 36,000 -120 Descending FlightAware ADS-B
Sun 09:04:07 AM -18.4580 146.4610 344° North 433 498 36,000  Level FlightAware ADS-B
Sun 09:04:47 AM -18.3770 146.4390 346° North 433 498 36,000 76 Level FlightAware ADS-B
Sun 09:05:26 AM -18.2919 146.4144 346° North 433 498 36,100  Climbing Aus ATC (RADAR)
Sun 09:05:27 AM -18.2980 146.4170 346° North 435 501 36,000 -130 Descending FlightAware ADS-B
Sun 09:06:12 AM -18.2060 146.3910 345° North 434 499 36,000  Level FlightAware ADS-B
Sun 09:06:52 AM -18.1290 146.3690 345° North 430 495 36,000 76 Level FlightAware ADS-B
Sun 09:07:31 AM -18.0456 146.3457 345° North 434 499 36,100  Climbing Aus ATC (RADAR)
Sun 09:07:37 AM -18.0400 146.3450 345° North 434 499 36,000 -130 Descending FlightAware ADS-B
Sun 09:08:17 AM -17.9600 146.3220 345° North 433 498 36,000 102 Level FlightAware ADS-B
Sun 09:08:36 AM -17.9199 146.3106 345° North 420 483 36,100  Climbing Aus ATC (RADAR)
Sun 09:09:02 AM -17.8760 146.2990 345° North 432 497 36,000 -91 Descending FlightAware ADS-B
Sun 09:09:42 AM -17.7950 146.2760 345° North 434 499 36,000  Level FlightAware ADS-B
Sun 09:10:27 AM -17.7100 146.2520 345° North 429 494 36,000 94 Level FlightAware ADS-B
Sun 09:10:46 AM -17.6665 146.2402 345° North 427 491 36,100 150 Climbing Aus ATC (RADAR)
Sun 09:11:07 AM -17.6360 146.2310 345° North 430 495 36,100 92 Level FlightAware ADS-B
Sun 09:11:51 AM -17.5387 146.2042 345° North 435 501 36,200  Climbing Aus ATC (RADAR)
Sun 09:12:52 AM -17.4260 146.1730 345° North 431 496 36,100 -63 Descending FlightAware ADS-B
Sun 09:13:27 AM -17.3600 146.1550 345° North 431 496 36,100  Level FlightAware ADS-B
Sun 09:14:01 AM -17.2828 146.1334 345° North 437 503 36,100 -150 Level Aus ATC (RADAR)
Sun 09:14:07 AM -17.2790 146.1320 345° North 431 496 36,000 -130 Descending FlightAware ADS-B
Sun 09:14:47 AM -17.2000 146.1110 346° North 431 496 36,000 95 Level FlightAware ADS-B
Sun 09:15:10 AM -17.1451 146.0955 346° North 432 497 36,100  Climbing Aus ATC (RADAR)
Sun 09:15:27 AM -17.1200 146.0890 346° North 431 496 36,000 -97 Descending FlightAware ADS-B
Sun 09:16:12 AM -17.0320 146.0640 345° North 432 497 36,000  Level FlightAware ADS-B
Sun 09:16:52 AM -16.9530 146.0420 345° North 432 497 36,000 95 Level FlightAware ADS-B
Sun 09:17:15 AM -16.8990 146.0272 345° North 430 495 36,100  Climbing Aus ATC (RADAR)
Sun 09:17:37 AM -16.8640 146.0180 345° North 432 497 36,000 -97 Descending FlightAware ADS-B
Sun 09:18:17 AM -16.7840 145.9960 345° North 432 497 36,000  Level FlightAware ADS-B
Sun 09:18:57 AM -16.7060 145.9740 345° North 434 499 36,000 88 Level FlightAware ADS-B
Sun 09:19:25 AM -16.6416 145.9564 345° North 437 503 36,100  Climbing Aus ATC (RADAR)
Sun 09:19:42 AM -16.6160 145.9500 345° North 434 499 36,000 -105 Descending FlightAware ADS-B
Sun 09:20:22 AM -16.5360 145.9280 345° North 435 501 36,000  Level FlightAware ADS-B
Sun 09:21:02 AM -16.4570 145.9060 345° North 436 502 36,000 82 Level FlightAware ADS-B
Sun 09:21:35 AM -16.3832 145.8847 345° North 440 506 36,100  Climbing Aus ATC (RADAR)
Sun 09:21:47 AM -16.3680 145.8810 345° North 445 512 36,000 -128 Descending FlightAware ADS-B
Sun 09:22:22 AM -16.2980 145.8620 345° North 445 512 36,000  Level FlightAware ADS-B
Sun 09:23:07 AM -16.2090 145.8380 345° North 446 513 36,000 77 Level FlightAware ADS-B
Sun 09:23:40 AM -16.1334 145.8161 345° North 443 510 36,100 150 Climbing Aus ATC (RADAR)
Sun 09:23:47 AM -16.1300 145.8160 345° North 446 513 36,100  Level FlightAware ADS-B
Sun 09:24:27 AM -16.0490 145.7940 345° North 446 513 36,100 103 Level FlightAware ADS-B
Sun 09:24:45 AM -16.0041 145.7810 345° North 438 504 36,200 -109 Climbing Aus ATC (RADAR)
Sun 09:25:22 AM -15.9410 145.7640 345° North 447 514 36,000 -94 Descending FlightAware ADS-B
Sun 09:25:49 AM -15.8743 145.7465 345° North 438 504 36,100  Climbing Aus ATC (RADAR)
Sun 09:26:07 AM -15.8490 145.7390 345° North 447 514 36,000 -103 Descending FlightAware ADS-B
Sun 09:26:47 AM -15.7740 145.7180 345° North 447 514 36,000  Level FlightAware ADS-B
Sun 09:27:27 AM -15.7060 145.6990 345° North 447 514 36,000  Level FlightAware ADS-B
Sun 09:28:07 AM -15.6380 145.6800 345° North 447 514 36,000 140 Level FlightAware ADS-B
Sun 09:28:10 AM -15.5919 145.6681 345° North 444 511 36,100  Climbing Aus ATC (RADAR)
Sun 09:28:47 AM -15.5700 145.6610 345° North 447 514 36,000  Descending FlightAware ADS-B
Sun 09:29:14 AM -15.4618 145.6346 345° North 439 505 36,100  Climbing Aus ATC (RADAR)
Sun 09:29:37 AM -15.4850 145.6380 345° North 447 514 36,000 -95 Descending FlightAware ADS-B
Sun 09:30:17 AM -15.4170 145.6190 345° North 447 514 36,000  Level FlightAware ADS-B
Sun 09:30:57 AM -15.3490 145.6000 345° North 447 514 36,000 90 Level FlightAware ADS-B
Sun 09:31:24 AM -15.1988 145.5635 345° North 450 518 36,100  Climbing Aus ATC (RADAR)
Sun 09:31:37 AM -15.2820 145.5810 345° North 447 514 36,000 -113 Descending FlightAware ADS-B
Sun 09:32:17 AM -15.2140 145.5620 345° North 447 514 36,000 255 Level FlightAware ADS-B
Sun 09:32:24 AM -15.0769 145.5304 345° North 452 520 36,200  Climbing Aus ATC (RADAR)
Sun 09:33:07 AM -15.1290 145.5390 345° North 447 514 36,000  Descending FlightAware ADS-B
Sun 09:33:34 AM -14.9342 145.4916 345° North 454 522 36,200  Climbing Aus ATC (RADAR)
Sun 09:33:37 AM -15.0780 145.5250 345° North 447 514 36,000 -279 Descending FlightAware ADS-B
Sun 09:34:17 AM -15.0100 145.5060 345° North 447 514 36,000 105 Level FlightAware ADS-B
Sun 09:34:34 AM -14.8114 145.4590 345° North 453 521 36,100  Climbing Aus ATC (RADAR)
Sun 09:34:57 AM -14.9420 145.4870 345° North 447 514 36,000  Descending FlightAware ADS-B
Sun 09:35:39 AM -14.6788 145.4236 345° North 451 519 36,100  Climbing Aus ATC (RADAR)
Sun 09:35:47 AM -14.8570 145.4630 345° North 447 514 36,000  Descending FlightAware ADS-B
Sun 09:36:44 AM -14.5471 145.3874 345° North 449 517 36,100 49 Climbing Aus ATC (RADAR)
Sun 09:37:49 AM -14.4160 145.3532 346° North 445 512 36,100  Level Aus ATC (RADAR)
Sun 09:38:49 AM -14.2928 145.3266 348° North 451 519 36,100  Level Aus ATC (RADAR)
Sun 09:39:58 AM -14.1473 145.3033 351° North 451 519 36,100 47 Level Aus ATC (RADAR)
Sun 09:40:58 AM -14.0217 145.2831 351° North 452 520 36,200 48 Climbing Aus ATC (RADAR)
Sun 09:42:03 AM -13.8842 145.2628 352° North 457 526 36,200 -44 Level Aus ATC (RADAR)
Sun 09:43:13 AM -13.7371 145.2393 351° North 452 520 36,100 -46 Descending Aus ATC (RADAR)
Sun 09:44:13 AM -13.6120 145.2171 350° North 450 518 36,100  Level Aus ATC (RADAR)
Sun 09:45:13 AM -13.4878 145.2006 353° North 445 512 36,100  Level Aus ATC (RADAR)
Sun 09:46:23 AM -13.3444 145.1791 352° North 441 507 36,100  Level Aus ATC (RADAR)
Sun 09:47:23 AM -13.2219 145.1604 352° North 441 507 36,100  Level Aus ATC (RADAR)
Sun 09:48:28 AM -13.0873 145.1432 353° North 446 513 36,100 -57 Level Aus ATC (RADAR)
Sun 09:49:08 AM -13.0050 145.1225 346° North 449 517 36,000 -47 Descending Aus ATC (RADAR)
Sun 09:50:37 AM -12.8156 145.0932 351° North 454 522 36,000  Level Aus ATC (RADAR)
Sun 09:51:37 AM -12.6897 145.0748 352° North 452 520 36,000  Level Aus ATC (RADAR)
Sun 09:55:41 AM -12.1724 144.9894 355° North 36,000  Level Aus ATC (Calculated)
Sun 09:56:37 AM -12.0862 144.9752 355° North 36,000  Level Aus ATC (Calculated)
Sun 09:57:00 AM -12.0155 144.9536 347° North  Level FlightAware Approximate
Sun 09:57:17 AM -12.0134 144.9637 355° North 36,000  Level Aus ATC (Calculated)
Sun 09:58:00 AM -11.9238 144.9277 344° North  Level FlightAware Approximate
Sun 09:58:58 AM -11.7984 144.9297 355° North 36,000  Level Aus ATC (Calculated)
Sun 09:59:00 AM -11.8650 144.8124 315° West  Level FlightAware Approximate
Sun 10:00:00 AM -11.9240 144.9423 174° South  Level FlightAware Approximate
Sun 10:01:00 AM -11.9137 144.9366 351° North  Level FlightAware Approximate
Sun 10:02:00 AM -11.7930 144.9179 351° North  Level FlightAware Approximate
Sun 10:03:00 AM -11.6722 144.8992 351° North  Level FlightAware Approximate
Sun 10:04:00 AM -11.5515 144.8806 351° North  Level FlightAware Approximate
Sun 10:05:00 AM -11.4308 144.8619 351° North  Level FlightAware Approximate
Sun 10:06:00 AM -11.3101 144.8433 351° North  Level FlightAware Approximate
Sun 10:07:00 AM -11.1894 144.8247 351° North  Level FlightAware Approximate
Sun 10:07:34 AM -10.6543 144.7496 356° North 36,000  Level Aus ATC (Calculated)
Sun 10:08:34 AM -10.5030 144.7259 356° North 36,000  Level Aus ATC (Calculated)
Sun 10:10:00 AM -10.3300 144.6990 351° North  Level FlightAware Approximate
Sun 10:11:00 AM -10.2093 144.6802 351° North  Level FlightAware Approximate
Sun 10:11:21 AM -10.1184 144.6657 356° North 36,000  Level Aus ATC (Calculated)
Sun 10:13:00 AM -9.9192 144.6349 351° North  Level FlightAware Approximate
Sun 10:14:00 AM -9.7985 144.6162 351° North  Level FlightAware Approximate
Sun 10:14:21 AM -9.6977 144.6000 356° North 36,000  Level Aus ATC (Calculated)
Sun 10:15:00 AM -9.6778 144.5975 351° North  Level FlightAware Approximate
Sun 10:16:00 AM -9.4986 144.5693 351° North  Level FlightAware Approximate
Sun 10:17:00 AM -9.3778 144.5507 351° North  Level FlightAware Approximate
Sun 10:18:00 AM -9.2571 144.5321 351° North  Level FlightAware Approximate
Sun 10:19:00 AM -9.1364 144.5135 351° North  Level FlightAware Approximate
Sun 10:20:00 AM -9.0157 144.4949 351° North  Level FlightAware Approximate
Sun 10:21:00 AM -8.8950 144.4764 351° North  Level FlightAware Approximate
Sun 10:22:00 AM -8.7743 144.4578 351° North  Level FlightAware Approximate
Sun 10:23:00 AM -8.6536 144.4393 351° North  Level FlightAware Approximate
Sun 10:24:00 AM -8.5329 144.4207 351° North  Level FlightAware Approximate
Sun 10:25:00 AM -8.4121 144.4022 351° North  Level FlightAware Approximate
Sun 10:26:00 AM -8.2914 144.3837 351° North  Level FlightAware Approximate
Sun 10:27:00 AM -8.1707 144.3652 351° North  Level FlightAware Approximate
Sun 10:28:00 AM -8.0500 144.3468 351° North  Level FlightAware Approximate
Sun 10:29:00 AM -7.9293 144.3283 351° North  Level FlightAware Approximate
Sun 10:30:00 AM -7.8085 144.3098 351° North  Level FlightAware Approximate
Sun 10:31:00 AM -7.6878 144.2914 351° North  Level FlightAware Approximate
Sun 10:32:00 AM -7.5671 144.2730 351° North  Level FlightAware Approximate
Sun 10:33:00 AM -7.4464 144.2545 351° North  Level FlightAware Approximate
Sun 10:34:00 AM -7.3257 144.2361 351° North  Level FlightAware Approximate
Sun 10:35:00 AM -7.4464 144.2545 171° South  Level FlightAware Approximate
Sun 10:36:00 AM -7.3257 144.2361 351° North  Level FlightAware Approximate
Sun 10:37:00 AM -7.4464 144.2545 171° South  Level FlightAware Approximate
Sun 10:38:00 AM -7.3257 144.2361 351° North  Level FlightAware Approximate
Sun 10:39:00 AM -7.4464 144.2545 171° South  Level FlightAware Approximate
Sun 10:40:00 AM -7.3572 144.2480 358° North  Level FlightAware Approximate
Sun 10:41:00 AM -7.2352 144.2438 358° North  Level FlightAware Approximate
Sun 10:42:00 AM -7.1132 144.2397 358° North  Level FlightAware Approximate
Sun 10:43:00 AM -6.9911 144.2355 358° North  Level FlightAware Approximate
Sun 10:44:00 AM -6.8691 144.2314 358° North  Level FlightAware Approximate
Sun 10:45:00 AM -6.7471 144.2272 358° North  Level FlightAware Approximate
Sun 10:46:00 AM -6.6250 144.2231 358° North  Level FlightAware Approximate
Sun 10:47:00 AM -6.5030 144.2189 358° North  Level FlightAware Approximate
Sun 10:48:00 AM -6.3810 144.2148 358° North  Level FlightAware Approximate
Sun 10:49:00 AM -6.2590 144.2106 358° North  Level FlightAware Approximate
Sun 10:50:00 AM -6.1369 144.2065 358° North  Level FlightAware Approximate
Sun 10:51:00 AM -6.0149 144.2023 358° North  Level FlightAware Approximate
Sun 10:52:00 AM -5.8929 144.1982 358° North  Level FlightAware Approximate
Sun 10:53:00 AM -5.7708 144.1941 358° North  Level FlightAware Approximate
Sun 10:54:00 AM -5.6488 144.1900 358° North  Level FlightAware Approximate
Sun 10:55:00 AM -5.5268 144.1858 358° North  Level FlightAware Approximate
Sun 10:56:00 AM -5.4047 144.1817 358° North  Level FlightAware Approximate
Sun 10:57:00 AM -5.2827 144.1776 358° North  Level FlightAware Approximate
Sun 10:58:00 AM -5.1607 144.1734 358° North  Level FlightAware Approximate
Sun 10:59:00 AM -5.0387 144.1693 358° North  Level FlightAware Approximate
Sun 11:00:00 AM -4.9166 144.1652 358° North  Level FlightAware Approximate
Sun 11:01:00 AM -4.7946 144.1611 358° North  Level FlightAware Approximate
Sun 11:02:00 AM -4.6726 144.1570 358° North  Level FlightAware Approximate
Sun 11:03:00 AM -4.5505 144.1528 358° North  Level FlightAware Approximate
Sun 11:04:00 AM -4.4285 144.1487 358° North  Level FlightAware Approximate
Sun 11:05:00 AM -4.3065 144.1446 358° North  Level FlightAware Approximate
Sun 11:06:00 AM -4.1844 144.1405 358° North  Level FlightAware Approximate
Sun 11:07:00 AM -4.0624 144.1364 358° North  Level FlightAware Approximate
Sun 11:08:00 AM -3.9404 144.1323 358° North  Level FlightAware Approximate
Sun 11:09:00 AM -3.8184 144.1282 358° North  Level FlightAware Approximate
Sun 11:10:00 AM -3.6963 144.1241 358° North  Level FlightAware Approximate
Sun 11:11:00 AM -3.5743 144.1200 358° North  Level FlightAware Approximate
Sun 11:12:00 AM -3.4523 144.1158 358° North  Level FlightAware Approximate
Sun 11:13:00 AM -3.3302 144.1118 358° North  Level FlightAware Approximate
Sun 11:14:00 AM -3.2082 144.1077 358° North  Level FlightAware Approximate
Sun 11:15:00 AM -3.0862 144.1035 358° North  Level FlightAware Approximate
Sun 11:16:00 AM -2.9641 144.0995 358° North  Level FlightAware Approximate
Sun 11:17:00 AM -2.8421 144.0954 358° North  Level FlightAware Approximate
Sun 11:18:00 AM -2.7201 144.0912 358° North  Level FlightAware Approximate
Sun 11:19:00 AM -2.5981 144.0871 358° North  Level FlightAware Approximate
Sun 11:20:00 AM -2.4760 144.0831 358° North  Level FlightAware Approximate
Sun 11:21:00 AM -2.3540 144.0789 358° North  Level FlightAware Approximate
Sun 11:22:00 AM -2.2320 144.0748 358° North  Level FlightAware Approximate
Sun 11:23:00 AM -2.1099 144.0708 358° North  Level FlightAware Approximate
Sun 11:24:00 AM -1.9879 144.0667 358° North  Level FlightAware Approximate
Sun 11:25:00 AM -1.8659 144.0626 358° North  Level FlightAware Approximate
Sun 11:26:00 AM -1.7438 144.0585 358° North  Level FlightAware Approximate
Sun 11:27:00 AM -1.6218 144.0544 358° North  Level FlightAware Approximate
Sun 11:28:00 AM -1.4998 144.0503 358° North  Level FlightAware Approximate
Sun 11:29:00 AM -1.3778 144.0462 358° North  Level FlightAware Approximate
Sun 11:30:00 AM -1.2557 144.0421 358° North  Level FlightAware Approximate
Sun 11:31:00 AM -1.1337 144.0380 358° North  Level FlightAware Approximate
Sun 11:31:11 AM 0.0000 144.0000 356° North 462 532 36,000  Level Oakland Oceanic (ODAPS)
Sun 11:32:00 AM -1.0117 144.0339 358° North  Level FlightAware Approximate
Sun 11:33:00 AM -0.8896 144.0298 358° North  Level FlightAware Approximate
Sun 11:34:00 AM -0.7676 144.0258 358° North  Level FlightAware Approximate
Sun 11:35:00 AM -0.6456 144.0217 358° North  Level FlightAware Approximate
Sun 11:36:00 AM -0.5235 144.0176 358° North  Level FlightAware Approximate
Sun 11:37:00 AM 0.7692 143.9412 356° North 462 532 36,000  Level FlightAware Transoceanic
Sun 11:38:00 AM 0.8974 143.9314 356° North 462 532 36,000  Level FlightAware Transoceanic
Sun 11:38:19 AM 0.9167 143.9333 356° North 461 531 36,000  Level Oakland Oceanic (ODAPS)
Sun 11:39:00 AM 1.0257 143.9216 356° North 462 532 36,000  Level FlightAware Transoceanic
Sun 11:40:00 AM 1.1538 143.9117 356° North 462 532 36,000  Level FlightAware Transoceanic
Sun 11:41:00 AM 1.2821 143.9019 356° North 462 532 36,000  Level FlightAware Transoceanic
Sun 11:42:00 AM 1.4103 143.8921 356° North 462 532 36,000  Level FlightAware Transoceanic
Sun 11:43:00 AM 1.5385 143.8823 356° North 462 532 36,000  Level FlightAware Transoceanic
Sun 11:44:00 AM 1.6823 143.8741 356° North 461 531 36,000  Level FlightAware Transoceanic
Sun 11:45:00 AM 1.8099 143.8642 356° North 461 531 36,000  Level FlightAware Transoceanic
Sun 11:46:00 AM 1.9375 143.8544 356° North 461 531 36,000  Level FlightAware Transoceanic
Sun 11:47:00 AM 2.0651 143.8445 356° North 461 531 36,000  Level FlightAware Transoceanic
Sun 11:48:00 AM 2.1927 143.8346 356° North 461 531 36,000  Level FlightAware Transoceanic
Sun 11:49:00 AM 2.3203 143.8247 356° North 461 531 36,000  Level FlightAware Transoceanic
Sun 11:50:00 AM 2.4479 143.8148 356° North 461 531 36,000  Level FlightAware Transoceanic
Sun 11:51:00 AM 2.5755 143.8050 356° North 461 531 36,000  Level FlightAware Transoceanic
Sun 11:52:00 AM 2.7031 143.7951 356° North 461 531 36,000  Level FlightAware Transoceanic
Sun 11:52:11 AM 2.7500 143.7833 356° North 459 528 36,000  Level Oakland Oceanic (ODAPS)
Sun 11:53:00 AM 2.8307 143.7852 356° North 461 531 36,000  Level FlightAware Transoceanic
Sun 11:54:00 AM 2.9583 143.7753 356° North 461 531 36,000  Level FlightAware Transoceanic
Sun 11:55:00 AM 3.0859 143.7654 356° North 461 531 36,000  Level FlightAware Transoceanic
Sun 11:56:00 AM 3.2136 143.7555 356° North 461 531 36,000  Level FlightAware Transoceanic
Sun 11:57:00 AM 3.3412 143.7456 356° North 461 531 36,000  Level FlightAware Transoceanic
Sun 11:58:00 AM 3.5441 143.7246 356° North 459 528 36,000  Level FlightAware Transoceanic
Sun 11:59:00 AM 3.6765 143.7148 356° North 459 528 36,000  Level FlightAware Transoceanic
Sun 12:00:00 PM 3.8088 143.7050 356° North 459 528 36,000  Level FlightAware Transoceanic
Sun 12:01:00 PM 3.9412 143.6952 356° North 459 528 36,000  Level FlightAware Transoceanic
Sun 12:02:00 PM 4.0735 143.6854 356° North 459 528 36,000  Level FlightAware Transoceanic
Sun 12:03:00 PM 4.2059 143.6756 356° North 459 528 36,000  Level FlightAware Transoceanic
Sun 12:04:00 PM 4.3382 143.6658 356° North 459 528 36,000  Level FlightAware Transoceanic
Sun 12:05:00 PM 4.4706 143.6560 356° North 459 528 36,000  Level FlightAware Transoceanic
Sun 12:05:55 PM 4.5833 143.6500 355° North 462 532 36,000  Level Oakland Oceanic (ODAPS)
Sun 12:06:00 PM 4.6029 143.6461 356° North 459 528 36,000  Level FlightAware Transoceanic
Sun 12:07:00 PM 4.7353 143.6363 356° North 459 528 36,000  Level FlightAware Transoceanic
Sun 12:08:00 PM 4.8677 143.6265 356° North 459 528 36,000  Level FlightAware Transoceanic
Sun 12:09:00 PM 5.0000 143.6167 351° North 459 528 36,000  Level FlightAware Transoceanic
Sun 12:09:01 PM 5.0000 143.6167 351° North 461 531 36,000  Level Oakland Oceanic (ODAPS)
Sun 12:10:00 PM 5.1285 143.5963 351° North 459 528 36,000  Level FlightAware Transoceanic
Sun 12:11:00 PM 5.2571 143.5758 351° North 459 528 36,000  Level FlightAware Transoceanic
Sun 12:12:00 PM 5.3960 143.5537 351° North 462 532 36,000  Level FlightAware Transoceanic
Sun 12:13:00 PM 5.5280 143.5327 351° North 462 532 36,000  Level FlightAware Transoceanic
Sun 12:14:00 PM 5.6600 143.5117 351° North 462 532 36,000  Level FlightAware Transoceanic
Sun 12:15:00 PM 5.7711 143.4940 351° North 461 531 36,000  Level FlightAware Transoceanic
Sun 12:16:00 PM 5.8997 143.4736 351° North 461 531 36,000  Level FlightAware Transoceanic
Sun 12:17:00 PM 6.0282 143.4531 351° North 461 531 36,000  Level FlightAware Transoceanic
Sun 12:18:00 PM 6.1567 143.4326 351° North 461 531 36,000  Level FlightAware Transoceanic
Sun 12:19:00 PM 6.2852 143.4121 351° North 461 531 36,000 113 Level FlightAware Transoceanic
Sun 12:19:46 PM 6.4167 143.4000 351° North 461 531 36,200  Climbing Oakland Oceanic (ODAPS)
Sun 12:20:00 PM 6.4137 143.3916 351° North 461 531 36,000 -162 Descending FlightAware Transoceanic
Sun 12:21:00 PM 6.5423 143.3711 351° North 461 531 36,000  Level FlightAware Transoceanic
Sun 12:22:00 PM 6.6708 143.3506 351° North 461 531 36,000  Level FlightAware Transoceanic
Sun 12:23:00 PM 6.7993 143.3300 351° North 461 531 36,000  Level FlightAware Transoceanic
Sun 12:24:00 PM 6.9278 143.3095 351° North 461 531 36,000  Level FlightAware Transoceanic
Sun 12:25:00 PM 7.0563 143.2889 351° North 461 531 36,000 100 Level FlightAware Transoceanic
Sun 12:26:00 PM 7.1871 143.2749 351° North 461 531 36,200 100 Climbing FlightAware Transoceanic
Sun 12:27:00 PM 7.3155 143.2540 351° North 461 531 36,200  Level FlightAware Transoceanic
Sun 12:28:00 PM 7.4439 143.2331 351° North 461 531 36,200  Level FlightAware Transoceanic
Sun 12:29:00 PM 7.5723 143.2122 351° North 461 531 36,200  Level FlightAware Transoceanic
Sun 12:30:00 PM 7.7007 143.1913 351° North 461 531 36,200  Level FlightAware Transoceanic
Sun 12:31:00 PM 7.8291 143.1703 351° North 461 531 36,200  Level FlightAware Transoceanic
Sun 12:32:00 PM 7.9575 143.1494 351° North 461 531 36,200  Level FlightAware Transoceanic
Sun 12:33:00 PM 8.0859 143.1284 351° North 461 531 36,200 1,091 Level FlightAware Transoceanic
Sun 12:33:39 PM 8.2333 143.1000 351° North 466 536 38,000  Climbing Oakland Oceanic (ODAPS)
Sun 12:34:00 PM 8.2143 143.1074 351° North 461 531 36,200 -1,333 Descending FlightAware Transoceanic
Sun 12:35:00 PM 8.3427 143.0864 351° North 461 531 36,200  Level FlightAware Transoceanic
Sun 12:36:00 PM 8.4711 143.0654 351° North 461 531 36,200  Level FlightAware Transoceanic
Sun 12:37:00 PM 8.5995 143.0444 351° North 461 531 36,200  Level FlightAware Transoceanic
Sun 12:38:00 PM 8.7279 143.0233 351° North 461 531 36,200 900 Level FlightAware Transoceanic
Sun 12:39:00 PM 8.9949 142.9772 351° North 466 536 38,000 900 Climbing FlightAware Transoceanic
Sun 12:40:00 PM 9.1218 142.9567 351° North 466 536 38,000  Level FlightAware Transoceanic
Sun 12:41:00 PM 9.2487 142.9362 351° North 466 536 38,000  Level FlightAware Transoceanic
Sun 12:42:00 PM 9.3757 142.9156 351° North 466 536 38,000  Level FlightAware Transoceanic
Sun 12:43:00 PM 9.5026 142.8951 351° North 466 536 38,000  Level FlightAware Transoceanic
Sun 12:44:00 PM 9.6295 142.8745 351° North 466 536 38,000  Level FlightAware Transoceanic
Sun 12:45:00 PM 9.7564 142.8539 351° North 466 536 38,000  Level FlightAware Transoceanic
Sun 12:46:00 PM 9.8833 142.8333 356° North 466 536 38,000  Level FlightAware Transoceanic
Sun 12:46:53 PM 9.9667 142.8500 356° North 500 575 38,000  Level Guam Center
Sun 12:47:00 PM 10.0079 142.8255 356° North 466 536 38,000  Level FlightAware Transoceanic
Sun 12:47:53 PM 10.1000 142.8333 353° North 470 541 38,000  Level Guam Center
Sun 12:48:00 PM 10.1325 142.8177 356° North 466 536 38,000  Level FlightAware Transoceanic
Sun 12:48:53 PM 10.2333 142.8167 353° North 480 552 38,000  Level Guam Center
Sun 12:49:00 PM 10.2570 142.8098 356° North 466 536 38,000  Level FlightAware Transoceanic
Sun 12:49:54 PM 10.3500 142.8000 352° North 470 541 38,000  Level Guam Center
Sun 12:50:00 PM 10.3816 142.8020 356° North 466 536 38,000  Level FlightAware Transoceanic
Sun 12:50:54 PM 10.4833 142.7833 353° North 460 529 38,000  Level Guam Center
Sun 12:51:00 PM 10.5062 142.7941 356° North 466 536 38,000  Level FlightAware Transoceanic
Sun 12:51:54 PM 10.6167 142.7667 353° North 470 541 38,000  Level Guam Center
Sun 12:52:00 PM 10.6307 142.7862 356° North 466 536 38,000  Level FlightAware Transoceanic
Sun 12:52:54 PM 10.7500 142.7500 353° North 470 541 38,000  Level Guam Center
Sun 12:53:54 PM 10.8833 142.7333 353° North 480 552 38,000  Level Guam Center
Sun 12:54:54 PM 11.0000 142.7167 352° North 470 541 38,000  Level Guam Center
Sun 12:55:55 PM 11.1500 142.6833 348° North 480 552 38,000  Level Guam Center
Sun 12:56:55 PM 11.2833 142.6667 353° North 480 552 38,000  Level Guam Center
Sun 12:57:55 PM 11.4000 142.6500 352° North 470 541 38,000  Level Guam Center
Sun 12:58:55 PM 11.5333 142.6333 353° North 470 541 38,000  Level Guam Center
Sun 12:59:55 PM 11.6667 142.6167 353° North 460 529 38,000  Level Guam Center
Sun 01:00:55 PM 11.8000 142.6000 353° North 470 541 38,000  Level Guam Center
Sun 01:01:55 PM 11.9167 142.5833 352° North 470 541 38,000  Level Guam Center
Sun 01:02:56 PM 12.0500 142.5667 353° North 480 552 38,000  Level Guam Center
Sun 01:03:56 PM 12.2000 142.5500 354° North 480 552 38,000  Level Guam Center
Sun 01:04:56 PM 12.3167 142.5167 344° North 470 541 38,000  Level Guam Center
Sun 01:05:56 PM 12.4500 142.5000 353° North 460 529 38,000  Level Guam Center
Sun 01:06:56 PM 12.5833 142.4833 353° North 470 541 38,000  Level Guam Center
Sun 01:07:56 PM 12.7000 142.4667 352° North 470 541 38,000  Level Guam Center
Sun 01:08:57 PM 12.8333 142.4500 353° North 470 541 38,000  Level Guam Center
Sun 01:09:57 PM 12.9667 142.4333 353° North 470 541 38,000  Level Guam Center
Sun 01:10:57 PM 13.1000 142.4167 353° North 480 552 38,000  Level Guam Center
Sun 01:11:57 PM 13.2333 142.4000 353° North 470 541 38,000  Level Guam Center
Sun 01:12:57 PM 13.3500 142.3833 352° North 460 529 38,000  Level Guam Center
Sun 01:13:57 PM 13.4833 142.3667 353° North 460 529 38,000  Level Guam Center
Sun 01:14:57 PM 13.6167 142.3500 353° North 460 529 38,000  Level Guam Center
Sun 01:15:57 PM 13.7333 142.3333 352° North 460 529 38,000  Level Guam Center
Sun 01:16:58 PM 13.8667 142.3167 353° North 460 529 38,000  Level Guam Center
Sun 01:17:58 PM 14.0000 142.3000 353° North 470 541 38,000  Level Guam Center
Sun 01:18:58 PM 14.1167 142.2667 345° North 470 541 38,000  Level Guam Center
Sun 01:19:58 PM 14.2500 142.2500 353° North 460 529 38,000  Level Guam Center
Sun 01:20:58 PM 14.3833 142.2333 353° North 460 529 38,000  Level Guam Center
Sun 01:21:58 PM 14.5000 142.2167 352° North 460 529 38,000  Level Guam Center
Sun 01:22:59 PM 14.6333 142.2000 353° North 460 529 38,000  Level Guam Center
Sun 01:23:59 PM 14.7500 142.1833 352° North 460 529 38,000  Level Guam Center
Sun 01:24:59 PM 14.8833 142.1667 353° North 470 541 38,000  Level Guam Center
Sun 01:25:59 PM 15.0167 142.1500 353° North 460 529 38,000  Level Guam Center
Sun 01:26:59 PM 15.1500 142.1333 353° North 460 529 38,000  Level Guam Center
Sun 01:27:59 PM 15.2667 142.1167 352° North 470 541 38,000  Level Guam Center
Sun 01:29:00 PM 15.4000 142.1000 353° North 460 529 38,000  Level Guam Center
Sun 01:30:00 PM 15.5333 142.0833 353° North 460 529 38,000  Level Guam Center
Sun 01:31:00 PM 15.6500 142.0667 352° North 450 518 38,000  Level Guam Center
Sun 01:32:00 PM 15.7833 142.0500 353° North 460 529 38,000  Level Guam Center
Sun 01:33:00 PM 15.9000 142.0333 352° North 460 529 38,000  Level Guam Center
Sun 01:34:00 PM 16.0333 142.0000 346° North 460 529 38,000  Level Guam Center
Sun 01:36:01 PM 16.2833 141.9667 353° North 460 529 38,000  Level Guam Center
Sun 01:37:01 PM 16.4167 141.9500 353° North 460 529 38,000  Level Guam Center
Sun 01:38:01 PM 16.5500 141.9333 353° North 480 552 38,000  Level Guam Center
Sun 01:39:38 PM 16.7333 141.8167 319° Northwest 442 509 38,000  Level Oakland Oceanic (ODAPS)
Sun 01:45:13 PM 17.1833 141.4000 319° Northwest 442 509 38,000  Level Oakland Oceanic (ODAPS)
Sun 01:46:00 PM 17.3879 141.2207 319° Northwest 442 509 38,000  Level FlightAware Transoceanic
Sun 01:47:00 PM 17.4813 141.1352 319° Northwest 442 509 38,000  Level FlightAware Transoceanic
Sun 01:48:00 PM 17.5746 141.0497 319° Northwest 442 509 38,000  Level FlightAware Transoceanic
Sun 01:49:00 PM 17.6679 140.9640 319° Northwest 442 509 38,000  Level FlightAware Transoceanic
Sun 01:50:00 PM 17.7612 140.8782 319° Northwest 442 509 38,000  Level FlightAware Transoceanic
Sun 01:51:00 PM 17.8241 140.8139 319° Northwest 442 509 38,000  Level FlightAware Transoceanic
Sun 01:52:00 PM 17.9155 140.7299 319° Northwest 442 509 38,000  Level FlightAware Transoceanic
Sun 01:53:00 PM 18.0069 140.6457 319° Northwest 442 509 38,000  Level FlightAware Transoceanic
Sun 01:54:00 PM 18.0982 140.5615 319° Northwest 442 509 38,000  Level FlightAware Transoceanic
Sun 01:55:00 PM 18.1895 140.4772 319° Northwest 442 509 38,000  Level FlightAware Transoceanic
Sun 01:56:00 PM 18.2808 140.3928 319° Northwest 442 509 38,000  Level FlightAware Transoceanic
Sun 01:57:00 PM 18.3720 140.3083 319° Northwest 442 509 38,000  Level FlightAware Transoceanic
Sun 01:58:00 PM 18.4631 140.2237 319° Northwest 442 509 38,000  Level FlightAware Transoceanic
Sun 01:58:21 PM 18.4833 140.2000 319° Northwest 439 505 38,000  Level Oakland Oceanic (ODAPS)
Sun 01:59:00 PM 18.5543 140.1390 319° Northwest 442 509 38,000  Level FlightAware Transoceanic
Sun 02:00:00 PM 18.6454 140.0542 319° Northwest 442 509 38,000  Level FlightAware Transoceanic
Sun 02:01:00 PM 18.7365 139.9694 319° Northwest 442 509 38,000  Level FlightAware Transoceanic
Sun 02:02:00 PM 18.8275 139.8844 319° Northwest 442 509 38,000  Level FlightAware Transoceanic
Sun 02:03:00 PM 18.9185 139.7994 318° Northwest 442 509 38,000  Level FlightAware Transoceanic
Sun 02:04:00 PM 19.0252 139.6955 319° Northwest 439 505 38,000  Level FlightAware Transoceanic
Sun 02:05:00 PM 19.1154 139.6111 318° Northwest 439 505 38,000  Level FlightAware Transoceanic
Sun 02:06:00 PM 19.2056 139.5266 318° Northwest 439 505 38,000  Level FlightAware Transoceanic
Sun 02:07:00 PM 19.2957 139.4420 318° Northwest 439 505 38,000  Level FlightAware Transoceanic
Sun 02:08:00 PM 19.3857 139.3574 318° Northwest 439 505 38,000  Level FlightAware Transoceanic
Sun 02:09:00 PM 19.4758 139.2726 318° Northwest 439 505 38,000  Level FlightAware Transoceanic
Sun 02:10:00 PM 19.5658 139.1877 318° Northwest 439 505 38,000  Level FlightAware Transoceanic
Sun 02:11:00 PM 19.6557 139.1028 318° Northwest 439 505 38,000  Level FlightAware Transoceanic
Sun 02:12:00 PM 19.7456 139.0177 318° Northwest 439 505 38,000  Level FlightAware Transoceanic
Sun 02:12:13 PM 19.8000 138.9667 318° Northwest 442 509 38,000  Level Oakland Oceanic (ODAPS)
Sun 02:13:00 PM 19.8355 138.9326 318° Northwest 439 505 38,000  Level FlightAware Transoceanic
Sun 02:14:00 PM 19.9253 138.8473 318° Northwest 439 505 38,000  Level FlightAware Transoceanic
Sun 02:15:00 PM 20.0151 138.7620 318° Northwest 439 505 38,000  Level FlightAware Transoceanic
Sun 02:16:00 PM 20.1048 138.6765 318° Northwest 439 505 38,000  Level FlightAware Transoceanic
Sun 02:17:00 PM 20.1945 138.5910 318° Northwest 439 505 38,000  Level FlightAware Transoceanic
Sun 02:18:00 PM 20.3548 138.4381 318° Northwest 442 509 38,000  Level FlightAware Transoceanic
Sun 02:19:00 PM 20.4471 138.3497 318° Northwest 442 509 38,000  Level FlightAware Transoceanic
Sun 02:20:00 PM 20.5394 138.2611 318° Northwest 442 509 38,000  Level FlightAware Transoceanic
Sun 02:21:00 PM 20.6316 138.1724 318° Northwest 442 509 38,000  Level FlightAware Transoceanic
Sun 02:22:00 PM 20.7237 138.0836 318° Northwest 442 509 38,000  Level FlightAware Transoceanic
Sun 02:23:00 PM 20.8159 137.9948 318° Northwest 442 509 38,000  Level FlightAware Transoceanic
Sun 02:24:00 PM 20.9080 137.9058 318° Northwest 442 509 38,000  Level FlightAware Transoceanic
Sun 02:25:00 PM 21.0000 137.8167 330° Northwest 442 509 38,000  Level FlightAware Transoceanic
Sun 02:26:00 PM 21.1077 137.7513 330° Northwest 442 509 38,000  Level FlightAware Transoceanic
Sun 02:27:00 PM 21.2154 137.6859 330° Northwest 442 509 38,000  Level FlightAware Transoceanic
Sun 02:28:00 PM 21.3230 137.6204 330° Northwest 442 509 38,000  Level FlightAware Transoceanic
Sun 02:29:00 PM 21.4307 137.5548 330° Northwest 442 509 38,000  Level FlightAware Transoceanic
Sun 02:30:00 PM 21.5383 137.4891 330° Northwest 442 509 38,000  Level FlightAware Transoceanic
Sun 02:31:00 PM 21.6459 137.4232 330° Northwest 442 509 38,000  Level FlightAware Transoceanic
Sun 02:32:00 PM 21.7534 137.3573 330° Northwest 442 509 38,000  Level FlightAware Transoceanic
Sun 02:33:00 PM 21.8610 137.2913 330° Northwest 442 509 38,000  Level FlightAware Transoceanic
Sun 02:34:00 PM 21.9685 137.2252 330° Northwest 442 509 38,000  Level FlightAware Transoceanic
Sun 02:35:00 PM 22.0759 137.1590 330° Northwest 442 509 38,000  Level FlightAware Transoceanic
Sun 02:36:00 PM 22.1834 137.0927 330° Northwest 442 509 38,000  Level FlightAware Transoceanic
Sun 02:37:00 PM 22.2908 137.0263 330° Northwest 442 509 38,000  Level FlightAware Transoceanic
Sun 02:38:00 PM 22.3982 136.9598 330° Northwest 442 509 38,000  Level FlightAware Transoceanic
Sun 02:39:00 PM 22.5056 136.8932 330° Northwest 442 509 38,000  Level FlightAware Transoceanic
Sun 02:40:00 PM 22.6129 136.8264 330° Northwest 442 509 38,000  Level FlightAware Transoceanic
Sun 02:41:00 PM 22.7202 136.7596 330° Northwest 442 509 38,000  Level FlightAware Transoceanic
Sun 02:42:00 PM 22.8275 136.6927 330° Northwest 442 509 38,000  Level FlightAware Transoceanic
Sun 02:43:00 PM 22.9347 136.6257 330° Northwest 442 509 38,000  Level FlightAware Transoceanic
Sun 02:44:00 PM 23.0420 136.5585 330° Northwest 442 509 38,000  Level FlightAware Transoceanic
Sun 02:45:00 PM 23.1492 136.4913 330° Northwest 442 509 38,000  Level FlightAware Transoceanic
Sun 02:46:00 PM 23.2563 136.4239 330° Northwest 442 509 38,000  Level FlightAware Transoceanic
Sun 02:47:00 PM 23.3635 136.3565 330° Northwest 442 509 38,000  Level FlightAware Transoceanic
Sun 02:48:00 PM 23.4706 136.2889 330° Northwest 442 509 38,000  Level FlightAware Transoceanic
Sun 02:49:00 PM 23.5777 136.2212 330° Northwest 442 509 38,000  Level FlightAware Transoceanic
Sun 02:50:00 PM 23.6847 136.1534 330° Northwest 442 509 38,000  Level FlightAware Transoceanic
Sun 02:51:00 PM 23.7918 136.0855 330° Northwest 442 509 38,000  Level FlightAware Transoceanic
Sun 02:52:00 PM 23.8988 136.0175 330° Northwest 442 509 38,000  Level FlightAware Transoceanic
Sun 02:53:00 PM 24.0057 135.9494 330° Northwest 442 509 38,000  Level FlightAware Transoceanic
Sun 02:54:00 PM 24.1127 135.8811 330° Northwest 442 509 38,000  Level FlightAware Transoceanic
Sun 02:55:00 PM 24.2196 135.8128 330° Northwest 442 509 38,000  Level FlightAware Transoceanic
Sun 02:56:00 PM 24.3265 135.7443 330° Northwest 442 509 38,000  Level FlightAware Transoceanic
Sun 02:57:00 PM 24.4333 135.6757 330° Northwest 442 509 38,000  Level FlightAware Transoceanic
Sun 02:58:00 PM 24.5401 135.6070 330° Northwest 442 509 38,000  Level FlightAware Transoceanic
Sun 02:59:00 PM 24.6469 135.5382 330° Northwest 442 509 38,000  Level FlightAware Transoceanic
Sun 03:00:00 PM 24.7536 135.4693 330° Northwest 442 509 38,000  Level FlightAware Transoceanic
Sun 03:01:00 PM 24.8604 135.4002 330° Northwest 442 509 38,000  Level FlightAware Transoceanic
Sun 03:02:00 PM 24.9671 135.3310 330° Northwest 442 509 38,000  Level FlightAware Transoceanic
Sun 03:03:00 PM 25.0737 135.2617 329° Northwest 442 509 38,000  Level FlightAware Transoceanic
Sun 03:04:00 PM 25.1803 135.1923 329° Northwest 442 509 38,000  Level FlightAware Transoceanic
Sun 03:05:00 PM 25.2869 135.1228 329° Northwest 442 509 38,000  Level FlightAware Transoceanic
Sun 03:06:00 PM 25.3935 135.0531 329° Northwest 442 509 38,000 Level FlightAware Transoceanic
Sun 03:07:00 PM 25.4981 134.9834 329° Northwest  Level FlightAware Approximate
Sun 03:08:00 PM 25.6026 134.9136 329° Northwest  Level FlightAware Approximate
Sun 03:09:00 PM 25.7072 134.8436 329° Northwest  Level FlightAware Approximate
Sun 03:10:00 PM 25.8117 134.7735 329° Northwest  Level FlightAware Approximate
Sun 03:11:00 PM 25.9161 134.7033 329° Northwest  Level FlightAware Approximate
Sun 03:12:00 PM 26.0206 134.6330 329° Northwest  Level FlightAware Approximate
Sun 03:13:00 PM 26.1250 134.5625 329° Northwest  Level FlightAware Approximate
Sun 03:14:00 PM 26.2293 134.4919 329° Northwest  Level FlightAware Approximate
Sun 03:15:00 PM 26.3337 134.4212 329° Northwest  Level FlightAware Approximate
Sun 03:16:00 PM 26.4380 134.3504 329° Northwest  Level FlightAware Approximate
Sun 03:17:00 PM 26.5422 134.2794 329° Northwest  Level FlightAware Approximate
Sun 03:18:00 PM 26.6465 134.2083 329° Northwest  Level FlightAware Approximate
Sun 03:19:00 PM 26.7507 134.1371 329° Northwest  Level FlightAware Approximate
Sun 03:20:00 PM 26.8548 134.0657 329° Northwest  Level FlightAware Approximate
Sun 03:21:00 PM 26.9589 133.9942 329° Northwest  Level FlightAware Approximate
Sun 03:22:00 PM 27.0630 133.9226 329° Northwest  Level FlightAware Approximate
Sun 03:23:00 PM 27.1671 133.8509 328° Northwest  Level FlightAware Approximate
Sun 03:24:00 PM 27.2711 133.7790 328° Northwest  Level FlightAware Approximate
Sun 03:25:00 PM 27.3750 133.7070 328° Northwest  Level FlightAware Approximate
Sun 03:26:00 PM 27.4790 133.6348 328° Northwest  Level FlightAware Approximate
Sun 03:27:00 PM 27.5829 133.5625 328° Northwest  Level FlightAware Approximate
Sun 03:28:00 PM 27.6867 133.4901 328° Northwest  Level FlightAware Approximate
Sun 03:29:00 PM 27.7906 133.4175 328° Northwest  Level FlightAware Approximate
Sun 03:30:00 PM 27.8944 133.3448 328° Northwest  Level FlightAware Approximate
Sun 03:31:00 PM 27.9981 133.2720 328° Northwest  Level FlightAware Approximate
Sun 03:32:00 PM 28.1018 133.1990 328° Northwest  Level FlightAware Approximate
Sun 03:33:00 PM 28.2055 133.1258 328° Northwest  Level FlightAware Approximate
Sun 03:34:00 PM 28.3091 133.0526 328° Northwest  Level FlightAware Approximate
Sun 03:35:00 PM 28.4127 132.9792 328° Northwest  Level FlightAware Approximate
Sun 03:36:00 PM 28.4108 132.9805 328° Northwest  Level FlightAware Approximate
Sun 03:37:00 PM 28.5144 132.9069 328° Northwest  Level FlightAware Approximate
Sun 03:38:00 PM 28.6179 132.8331 328° Northwest  Level FlightAware Approximate
Sun 03:39:00 PM 28.7213 132.7592 328° Northwest  Level FlightAware Approximate
Sun 03:40:00 PM 28.8247 132.6852 328° Northwest  Level FlightAware Approximate
Sun 03:41:00 PM 28.9281 132.6110 328° Northwest  Level FlightAware Approximate
Sun 03:42:00 PM 29.0314 132.5367 328° Northwest  Level FlightAware Approximate
Sun 03:43:00 PM 29.1347 132.4622 328° Northwest  Level FlightAware Approximate
Sun 03:44:00 PM 29.2379 132.3875 328° Northwest  Level FlightAware Approximate
Sun 03:45:00 PM 29.3411 132.3127 328° Northwest  Level FlightAware Approximate
Sun 03:46:00 PM 29.4443 132.2378 328° Northwest  Level FlightAware Approximate
Sun 03:47:00 PM 29.5474 132.1627 328° Northwest  Level FlightAware Approximate
Sun 03:48:00 PM 29.6505 132.0875 328° Northwest  Level FlightAware Approximate
Sun 03:49:00 PM 29.7535 132.0121 328° Northwest  Level FlightAware Approximate
Sun 03:50:00 PM 29.8565 131.9366 328° Northwest  Level FlightAware Approximate
Sun 03:51:00 PM 29.9595 131.8609 328° Northwest  Level FlightAware Approximate
Sun 03:52:00 PM 30.0624 131.7850 327° Northwest  Level FlightAware Approximate
Sun 03:53:00 PM 30.1653 131.7090 327° Northwest  Level FlightAware Approximate
Sun 03:54:00 PM 30.2681 131.6330 327° Northwest  Level FlightAware Approximate
Sun 03:55:00 PM 30.3710 131.5567 327° Northwest  Level FlightAware Approximate
Sun 03:56:00 PM 30.4738 131.4804 327° Northwest  Level FlightAware Approximate
Sun 03:57:00 PM 30.5765 131.4038 327° Northwest  Level FlightAware Approximate
Sun 03:58:00 PM 30.6792 131.3271 327° Northwest  Level FlightAware Approximate
Sun 03:59:00 PM 30.7819 131.2503 327° Northwest  Level FlightAware Approximate
Sun 04:00:00 PM 30.8845 131.1732 327° Northwest  Level FlightAware Approximate
Sun 04:01:00 PM 30.9871 131.0960 327° Northwest  Level FlightAware Approximate
Sun 04:02:00 PM 31.0896 131.0187 327° Northwest  Level FlightAware Approximate
Sun 04:03:00 PM 31.1921 130.9412 327° Northwest  Level FlightAware Approximate
Sun 04:04:00 PM 31.2945 130.8635 327° Northwest  Level FlightAware Approximate
Sun 04:05:00 PM 31.3969 130.7856 327° Northwest  Level FlightAware Approximate
Sun 04:06:00 PM 31.4992 130.7076 327° Northwest  Level FlightAware Approximate
Sun 04:07:00 PM 31.6015 130.6294 327° Northwest  Level FlightAware Approximate
Sun 04:08:00 PM 31.7051 130.5538 333° Northwest  Level FlightAware Approximate
Sun 04:09:00 PM 31.8142 130.4893 333° Northwest  Level FlightAware Approximate
Sun 04:10:00 PM 31.9233 130.4247 333° Northwest  Level FlightAware Approximate
Sun 04:11:00 PM 32.0323 130.3599 333° Northwest  Level FlightAware Approximate
Sun 04:12:00 PM 32.1413 130.2950 333° Northwest  Level FlightAware Approximate
Sun 04:13:00 PM 32.2502 130.2299 333° Northwest  Level FlightAware Approximate
Sun 04:14:00 PM 32.3591 130.1646 333° Northwest  Level FlightAware Approximate
Sun 04:15:00 PM 32.4680 130.0992 333° Northwest  Level FlightAware Approximate
Sun 04:16:00 PM 32.5771 130.0342 333° Northwest  Level FlightAware Approximate
Sun 04:17:00 PM 32.6861 129.9691 333° Northwest  Level FlightAware Approximate
Sun 04:18:00 PM 32.7952 129.9037 333° Northwest  Level FlightAware Approximate
Sun 04:19:00 PM 32.9042 129.8383 333° Northwest  Level FlightAware Approximate
Sun 04:20:00 PM 33.0131 129.7726 333° Northwest  Level FlightAware Approximate
Sun 04:20:27 PM 32.6860 130.1670 333° Northwest 399 459 38,100  Level FlightAware ADS-B
Sun 04:21:00 PM 33.1221 129.7068 333° Northwest  Level FlightAware Approximate
Sun 04:22:00 PM 33.2307 129.6404 333° Northwest  Level FlightAware Approximate
Sun 04:23:00 PM 33.3393 129.5737 333° Northwest  Level FlightAware Approximate
Sun 04:23:47 PM 33.0250 130.0160 340° North 384 442 38,000  Level FlightAware ADS-B
Sun 04:24:27 PM 33.0980 129.9830 339° North 377 434 38,000  Level FlightAware ADS-B
Sun 04:25:07 PM 33.1640 129.9530 339° North 377 434 38,000  Level FlightAware ADS-B
Sun 04:25:52 PM 33.2370 129.9200 339° North 377 434 38,000 71 Level FlightAware ADS-B
Sun 04:26:32 PM 33.3050 129.8890 339° North 383 441 38,100 75 Climbing FlightAware ADS-B
Sun 04:27:12 PM 33.3700 129.8590 339° North 382 440 38,100  Level FlightAware ADS-B
Sun 04:27:57 PM 33.4460 129.8250 340° North 383 441 38,100  Level FlightAware ADS-B
Sun 04:28:37 PM 33.5130 129.7940 339° North 383 441 38,100  Level FlightAware ADS-B
Sun 04:29:17 PM 33.5790 129.7640 339° North 382 440 38,100 -71 Level FlightAware ADS-B
Sun 04:30:02 PM 33.6530 129.7300 339° North 381 438 38,000  Descending FlightAware ADS-B
Sun 04:30:47 PM 33.7270 129.6960 339° North 381 438 38,100  Climbing FlightAware ADS-B
Sun 04:31:27 PM 33.7950 129.6650 339° North 380 437 38,000 -75 Descending FlightAware ADS-B
Sun 04:32:07 PM 33.8590 129.6350 339° North 378 435 38,000  Level FlightAware ADS-B
Sun 04:32:52 PM 33.9340 129.6010 339° North 377 434 38,000  Level FlightAware ADS-B
Sun 04:33:32 PM 33.9970 129.5720 339° North 377 434 38,000  Level FlightAware ADS-B
Sun 04:34:17 PM 34.0730 129.5360 339° North 378 435 38,000  Level FlightAware ADS-B
Sun 04:34:57 PM 34.1390 129.5060 339° North 380 437 38,000  Level FlightAware ADS-B
Sun 04:35:37 PM 34.2050 129.4760 339° North 382 440 38,000 71 Level FlightAware ADS-B
Sun 04:36:22 PM 34.2810 129.4400 339° North 378 435 38,100 71 Climbing FlightAware ADS-B
Sun 04:37:02 PM 34.3350 129.4150 339° North 387 445 38,100  Level FlightAware ADS-B
Sun 04:37:42 PM 34.4110 129.3800 339° North 390 449 38,100  Level FlightAware ADS-B
Sun 04:38:27 PM 34.4900 129.3430 339° North 383 441 38,100  Level FlightAware ADS-B
Sun 04:39:07 PM 34.5560 129.3120 339° North 384 442 38,100 -80 Level FlightAware ADS-B
Sun 04:39:42 PM 34.6150 129.2840 339° North 384 442 38,000 -43 Descending FlightAware ADS-B
Sun 04:40:47 PM 34.7170 129.2360 339° North 38,000  Level FlightAware ADS-B
Sun 04:41:27 PM 34.7930 129.1920 335° Northwest 381 438 38,000  Level FlightAware ADS-B
Sun 04:42:12 PM 34.8620 129.1520 335° Northwest 389 448 38,000  Level FlightAware ADS-B
Sun 04:42:52 PM 34.9290 129.1130 334° Northwest 390 449 38,000  Level FlightAware ADS-B
Sun 04:43:37 PM 35.0060 129.0680 334° Northwest 391 450 38,000  Level FlightAware ADS-B
Sun 04:44:12 PM 35.0610 129.0350 334° Northwest 393 452 38,000 80 Level FlightAware ADS-B
Sun 04:44:52 PM 35.1270 128.9970 335° Northwest 393 452 38,100  Climbing FlightAware ADS-B
Sun 04:45:42 PM 35.2060 128.9500 334° Northwest 395 455 38,000 -71 Descending FlightAware ADS-B
Sun 04:46:17 PM 35.2590 128.9190 334° Northwest 395 455 38,000  Level FlightAware ADS-B
Sun 04:47:07 PM 35.3290 128.8770 334° Northwest 395 455 38,000 71 Level FlightAware ADS-B
Sun 04:47:42 PM 35.2060 128.9500 154° Southeast 395 455 38,100  Climbing FlightAware ADS-B
Sun 04:48:27 PM 35.4750 128.7910 334° Northwest 392 451 38,000 -60 Descending FlightAware ADS-B
Sun 04:49:22 PM 35.5630 128.7380 334° Northwest 392 451 38,000  Level FlightAware ADS-B
Sun 04:50:02 PM 35.6190 128.7050 334° Northwest 392 451 38,000  Level FlightAware ADS-B
Sun 04:50:47 PM 35.5660 128.7370 154° Southeast 392 451 38,000  Level FlightAware ADS-B
Sun 04:51:32 PM 35.7780 128.6100 334° Northwest 399 459 38,000  Level FlightAware ADS-B
Sun 04:52:07 PM 35.8310 128.5760 333° Northwest 399 459 38,000  Level FlightAware ADS-B
Sun 04:52:57 PM 35.9010 128.5320 333° Northwest 399 459 38,000  Level FlightAware ADS-B
Sun 04:53:37 PM 35.9570 128.4970 333° Northwest 399 459 38,000  Level FlightAware ADS-B
Sun 04:54:17 PM 36.0130 128.4620 333° Northwest 399 459 38,000  Level FlightAware ADS-B
Sun 04:54:57 PM 36.0690 128.4270 333° Northwest 399 459 38,000  Level FlightAware ADS-B
Sun 04:55:37 PM 36.1250 128.3910 333° Northwest 399 459 38,000  Level FlightAware ADS-B
Sun 04:56:17 PM 36.1810 128.3560 333° Northwest 399 459 38,000  Level FlightAware ADS-B
Sun 04:57:07 PM 36.2510 128.3120 333° Northwest 399 459 38,000  Level FlightAware ADS-B
Sun 04:57:47 PM 36.3060 128.2760 332° Northwest 399 459 38,000 -4,909 Level FlightAware ADS-B
Sun 04:58:02 PM 36.2690 128.0430 259° West 378 435 33,500 -4,714 Descending FlightAware ADS-B
Sun 04:58:57 PM 36.3400 127.9550 315° West 389 448 32,500 -632 Descending FlightAware ADS-B
Sun 04:59:37 PM 36.3840 127.9010 315° West 389 448 32,500  Level FlightAware ADS-B
Sun 05:00:17 PM 36.4270 127.8470 315° West 389 448 32,500  Level FlightAware ADS-B
Sun 05:00:57 PM 36.4700 127.7940 315° West 389 448 32,500  Level FlightAware ADS-B
Sun 05:01:47 PM 36.5240 127.7260 315° West 389 448 32,500  Level FlightAware ADS-B
Sun 05:02:27 PM 36.5670 127.6720 315° West 389 448 32,500  Level FlightAware ADS-B
Sun 05:03:07 PM 36.6110 127.6190 316° Northwest 389 448 32,500  Level FlightAware ADS-B
Sun 05:03:47 PM 36.6540 127.5650 315° West 389 448 32,500  Level FlightAware ADS-B
Sun 05:04:27 PM 36.6970 127.5110 315° West 389 448 32,500  Level FlightAware ADS-B
Sun 05:05:07 PM 36.7410 127.4570 315° West 389 448 32,500 -5,211 Level FlightAware ADS-B
Sun 05:05:57 PM 37.0010 127.6880 35° Northeast 18,000 -6,756 Descending FlightAware ADS-B
Sun 05:07:22 PM 37.0780 127.5550 306° West 296 341 17,300 -800 Descending FlightAware ADS-B
Sun 05:07:57 PM 37.1090 127.5110 311° West 293 337 16,400 -1,457 Descending FlightAware ADS-B
Sun 05:08:32 PM 37.1180 127.4510 281° West 296 341 15,600 -764 Descending FlightAware ADS-B
Sun 05:09:47 PM 37.1140 127.3220 268° West 303 349 15,000 -497 Descending FlightAware ADS-B
Sun 05:10:57 PM 37.1060 127.1980 265° West 311 358 14,400 -1,200 Descending FlightAware ADS-B
Sun 05:12:12 PM 37.0670 127.0740 249° West 302 348 12,100 -1,477 Descending FlightAware ADS-B
Sun 05:13:07 PM 37.0410 126.9970 247° West 291 335 11,200 -568 Descending FlightAware ADS-B
Sun 05:13:47 PM 37.0230 126.9440 247° West 291 335 11,200 -1,108 Level FlightAware ADS-B
Sun 05:15:17 PM 37.0780 126.8560 308° West 215 247 8,800 -1,309 Descending FlightAware ADS-B
Sun 05:15:37 PM 37.0910 126.8420 319° Northwest 215 247 8,800  Level FlightAware ADS-B
Sun 05:16:07 PM 37.1110 126.8220 321° Northwest 215 247 8,800  Level FlightAware ADS-B
Sun 05:16:37 PM 37.1300 126.8010 319° Northwest 215 247 8,800 -2,640 Level FlightAware ADS-B
Sun 05:17:22 PM 37.1640 126.7390 305° West 199 229 5,500 -3,046 Descending FlightAware ADS-B
Sun 05:17:42 PM 37.1650 126.7360 293° West 199 229 5,500 -708 Level FlightAware ADS-B
Sun 05:20:00 PM 37.3901 126.5250 323° Northwest  Level Estimated
Sun 05:20:37 PM 37.2930 126.6090 323° Northwest 175 201 3,200  Level FlightAware ADS-B
Sun 05:21:02 PM 37.3080 126.5960 325° Northwest 175 201 3,200  Level FlightAware ADS-B
Sun 05:23:00 PM 37.4691 126.4505 324° Northwest  Level Estimated
Sun 05:24:00 PM 37.4691 126.4505 335° Northwest  Level Estimated
Sun 05:25:00 PM 37.4691 126.4505 335° Northwest  Level Estimated
Sun 05:26:00 PM 37.4691 126.4505 335° Northwest  Level Estimated
Sun 05:27:00 PM 37.4691 126.4505 335° Northwest  Level Estimated
Sun 05:28:00 PM 37.4691 126.4505 335° Northwest  Level Estimated

Login

Don't have an account? Register now (free) for customized features, flight alerts, and more!